Observation data for Fritch on 03/05/2021      Previous  Date  Next       Current Mesonet Observations  Soil Data  Daily Summary Page  Observations in Plain Language
KFR1 050600Z 32017G22KT 08/M00 A2994 RMK A01 T00831002  RH  055%=      5-min Rain = 0
KFR1 050601Z 32017G22KT 08/M00 A2994 RMK A01 T00831002  RH  055%=      5-min Rain = 0
KFR1 050602Z 32015KT 08/M00 A2994 RMK A01 T00841002  RH  055%=      5-min Rain = 0
KFR1 050603Z 33015KT 08/M00 A2994 RMK A01 T00841001  RH  055%=      5-min Rain = 0
KFR1 050604Z 32012G18KT 08/M00 A2994 RMK A01 T00831001  RH  055%=      5-min Rain = 0
KFR1 050605Z 32015KT 08/M00 A2994 RMK A01 T00821001  RH  056%=      5-min Rain = 0
KFR1 050606Z 32012G18KT 08/M00 A2994 RMK A01 T00821001  RH  056%=      5-min Rain = 0
KFR1 050607Z 33014G19KT 08/M00 A2994 RMK A01 T00821001  RH  056%=      5-min Rain = 0
KFR1 050608Z 32014KT 08/00 A2994 RMK A01 T008100-0  RH  056%=      5-min Rain = 0
KFR1 050609Z 33012KT 08/00 A2994 RMK A01 T00810000  RH  057%=      5-min Rain = 0
KFR1 050610Z 33011G18KT 08/00 A2994 RMK A01 T00800001  RH  057%=      5-min Rain = 0
KFR1 050611Z 32013KT 08/00 A2994 RMK A01 T00800001  RH  057%=      5-min Rain = 0
KFR1 050612Z 33013KT 08/00 A2993 RMK A01 T00790001  RH  058%=      5-min Rain = 0
KFR1 050613Z 32013G19KT 08/00 A2993 RMK A01 T00790001  RH  058%=      5-min Rain = 0
KFR1 050614Z 32012G19KT 08/00 A2994 RMK A01 T00790001  RH  057%=      5-min Rain = 0
KFR1 050615Z 32015G21KT 08/00 A2994 RMK A01 T00800001  RH  057%=      5-min Rain = 0
KFR1 050616Z 32017G22KT 08/00 A2994 RMK A01 T00800001  RH  058%=      5-min Rain = 0
KFR1 050617Z 32017G22KT 08/00 A2994 RMK A01 T00800001  RH  058%=      5-min Rain = 0
KFR1 050618Z 32016G21KT 08/00 A2993 RMK A01 T00800002  RH  058%=      5-min Rain = 0
KFR1 050619Z 32018G27KT 08/00 A2994 RMK A01 T00800002  RH  058%=      5-min Rain = 0
KFR1 050620Z 32016G22KT 08/00 A2993 RMK A01 T00810003  RH  058%=      5-min Rain = 0
KFR1 050621Z 32021G26KT 08/00 A2993 RMK A01 T00810003  RH  058%=      5-min Rain = 0
KFR1 050622Z 32019G27KT 08/00 A2993 RMK A01 T00810003  RH  058%=      5-min Rain = 0
KFR1 050623Z 32020G25KT 08/00 A2993 RMK A01 T00820004  RH  058%=      5-min Rain = 0
KFR1 050624Z 32018G25KT 08/00 A2993 RMK A01 T00820004  RH  058%=      5-min Rain = 0
KFR1 050625Z 32017G25KT 08/01 A2993 RMK A01 T00830005  RH  058%=      5-min Rain = 0
KFR1 050626Z 32018KT 08/01 A2993 RMK A01 T00820005  RH  058%=      5-min Rain = 0
KFR1 050627Z 32016KT 08/01 A2993 RMK A01 T00820005  RH  058%=      5-min Rain = 0
KFR1 050628Z 32017G22KT 08/01 A2993 RMK A01 T00820005  RH  059%=      5-min Rain = 0
KFR1 050629Z 32019KT 08/01 A2993 RMK A01 T00810005  RH  059%=      5-min Rain = 0
KFR1 050630Z 31018G25KT 08/01 A2993 RMK A01 T00810005  RH  059%=      5-min Rain = 0
KFR1 050631Z 32016KT 08/01 A2993 RMK A01 T00810005  RH  059%=      5-min Rain = 0
KFR1 050632Z 32016G26KT 08/01 A2993 RMK A01 T00810005  RH  059%=      5-min Rain = 0
KFR1 050633Z 31013KT 08/01 A2993 RMK A01 T00800005  RH  059%=      5-min Rain = 0
KFR1 050634Z 32016G21KT 08/01 A2993 RMK A01 T00800005  RH  059%=      5-min Rain = 0
KFR1 050635Z 32014G20KT 08/01 A2993 RMK A01 T00800005  RH  059%=      5-min Rain = 0
KFR1 050636Z 32018KT 08/01 A2993 RMK A01 T00790005  RH  059%=      5-min Rain = 0
KFR1 050637Z 32018KT 08/01 A2993 RMK A01 T00790005  RH  059%=      5-min Rain = 0
KFR1 050638Z 32018KT 08/01 A2993 RMK A01 T00800005  RH  059%=      5-min Rain = 0
KFR1 050639Z 32016G21KT 08/01 A2993 RMK A01 T00800005  RH  059%=      5-min Rain = 0
KFR1 050640Z 32015G20KT 08/01 A2993 RMK A01 T00800005  RH  059%=      5-min Rain = 0
KFR1 050641Z 32016G22KT 08/01 A2993 RMK A01 T00800006  RH  060%=      5-min Rain = 0
KFR1 050642Z 32020G25KT 08/01 A2993 RMK A01 T00800006  RH  060%=      5-min Rain = 0
KFR1 050643Z 32016G22KT 08/01 A2993 RMK A01 T00800007  RH  060%=      5-min Rain = 0
KFR1 050644Z 32015G22KT 08/01 A2993 RMK A01 T00800006  RH  060%=      5-min Rain = 0
KFR1 050645Z 33016G23KT 08/01 A2993 RMK A01 T00800007  RH  060%=      5-min Rain = 0
KFR1 050646Z 32017KT 08/01 A2993 RMK A01 T00800007  RH  060%=      5-min Rain = 0
KFR1 050647Z 32017G22KT 08/01 A2993 RMK A01 T00790007  RH  060%=      5-min Rain = 0
KFR1 050648Z 32018G24KT 08/01 A2993 RMK A01 T00800007  RH  060%=      5-min Rain = 0
KFR1 050649Z 32018G25KT 08/01 A2993 RMK A01 T00800007  RH  060%=      5-min Rain = 0
KFR1 050650Z 33014KT 08/01 A2993 RMK A01 T00800007  RH  060%=      5-min Rain = 0
KFR1 050651Z 32015KT 08/01 A2993 RMK A01 T00800007  RH  060%=      5-min Rain = 0
KFR1 050652Z 33013KT 08/01 A2993 RMK A01 T00800008  RH  060%=      5-min Rain = 0
KFR1 050653Z 32012G17KT 08/01 A2993 RMK A01 T00790007  RH  060%=      5-min Rain = 0
KFR1 050654Z 32010KT 08/01 A2993 RMK A01 T00790007  RH  060%=      5-min Rain = 0
KFR1 050655Z 32010KT 08/01 A2993 RMK A01 T00780007  RH  061%=      5-min Rain = 0
KFR1 050656Z 32013KT 08/01 A2993 RMK A01 T00780007  RH  061%=      5-min Rain = 0
KFR1 050657Z 32012KT 08/01 A2993 RMK A01 T00780008  RH  061%=      5-min Rain = 0
KFR1 050658Z 32012KT 08/01 A2993 RMK A01 T00770008  RH  061%=      5-min Rain = 0
KFR1 050659Z 33010KT 08/01 A2993 RMK A01 T00770008  RH  061%=      5-min Rain = 0
KFR1 050700Z 32014KT 08/01 A2993 RMK A01 T00770008  RH  061%=      5-min Rain = 0
KFR1 050701Z 33011G18KT 08/01 A2993 RMK A01 T00780008  RH  061%=      5-min Rain = 0
KFR1 050702Z 32010G15KT 08/01 A2993 RMK A01 T00780008  RH  061%=      5-min Rain = 0
KFR1 050703Z 33014KT 08/01 A2993 RMK A01 T00780008  RH  061%=      5-min Rain = 0
KFR1 050704Z 33012KT 08/01 A2993 RMK A01 T00780008  RH  061%=      5-min Rain = 0
KFR1 050705Z 33012KT 08/01 A2993 RMK A01 T00780009  RH  061%=      5-min Rain = 0
KFR1 050706Z 32012KT 08/01 A2993 RMK A01 T00790009  RH  061%=      5-min Rain = 0
KFR1 050707Z 33009KT 08/01 A2993 RMK A01 T00790009  RH  062%=      5-min Rain = 0
KFR1 050708Z 32012KT 08/01 A2993 RMK A01 T00780009  RH  062%=      5-min Rain = 0
KFR1 050709Z 31012G17KT 08/01 A2993 RMK A01 T00780010  RH  062%=      5-min Rain = 0
KFR1 050710Z 32014KT 08/01 A2993 RMK A01 T00780010  RH  062%=      5-min Rain = 0
KFR1 050711Z 32014KT 08/01 A2993 RMK A01 T00790010  RH  062%=      5-min Rain = 0
KFR1 050712Z 32013KT 08/01 A2993 RMK A01 T00790010  RH  061%=      5-min Rain = 0
KFR1 050713Z 32012G18KT 08/01 A2993 RMK A01 T00790010  RH  062%=      5-min Rain = 0
KFR1 050714Z 31015G22KT 08/01 A2993 RMK A01 T00790011  RH  062%=      5-min Rain = 0
KFR1 050715Z 31015G21KT 08/01 A2993 RMK A01 T00790011  RH  062%=      5-min Rain = 0
KFR1 050716Z 32015G20KT 08/01 A2993 RMK A01 T00790011  RH  062%=      5-min Rain = 0
KFR1 050717Z 32015G20KT 08/01 A2994 RMK A01 T00800011  RH  062%=      5-min Rain = 0
KFR1 050718Z 32015KT 08/01 A2994 RMK A01 T00790010  RH  062%=      5-min Rain = 0
KFR1 050719Z 32011KT 08/01 A2994 RMK A01 T00790010  RH  062%=      5-min Rain = 0
KFR1 050720Z 32014KT 08/01 A2994 RMK A01 T00780010  RH  062%=      5-min Rain = 0
KFR1 050721Z 32012G18KT 08/01 A2994 RMK A01 T00780010  RH  062%=      5-min Rain = 0
KFR1 050722Z 31013KT 08/01 A2994 RMK A01 T00780010  RH  062%=      5-min Rain = 0
KFR1 050723Z 31014KT 08/01 A2994 RMK A01 T00780010  RH  062%=      5-min Rain = 0
KFR1 050724Z 31015KT 08/01 A2994 RMK A01 T00780010  RH  062%=      5-min Rain = 0
KFR1 050725Z 31014G19KT 08/01 A2994 RMK A01 T00780010  RH  062%=      5-min Rain = 0
KFR1 050726Z 31013G18KT 08/01 A2994 RMK A01 T00780010  RH  062%=      5-min Rain = 0
KFR1 050727Z 31015KT 08/01 A2994 RMK A01 T00780010  RH  062%=      5-min Rain = 0
KFR1 050728Z 31013G18KT 08/01 A2994 RMK A01 T00780009  RH  062%=      5-min Rain = 0
KFR1 050729Z 32013KT 08/01 A2994 RMK A01 T00780010  RH  062%=      5-min Rain = 0
KFR1 050730Z 31014KT 08/01 A2994 RMK A01 T00780010  RH  062%=      5-min Rain = 0
KFR1 050731Z 31014KT 08/01 A2994 RMK A01 T00780009  RH  062%=      5-min Rain = 0
KFR1 050732Z 31014KT 08/01 A2994 RMK A01 T00780009  RH  062%=      5-min Rain = 0
KFR1 050733Z 32013KT 08/01 A2994 RMK A01 T00770009  RH  062%=      5-min Rain = 0
KFR1 050734Z 32010KT 08/01 A2994 RMK A01 T00770009  RH  062%=      5-min Rain = 0
KFR1 050735Z 31013KT 08/01 A2994 RMK A01 T00760009  RH  062%=      5-min Rain = 0
KFR1 050736Z 31013KT 08/01 A2994 RMK A01 T00760009  RH  063%=      5-min Rain = 0
KFR1 050737Z 31016KT 08/01 A2994 RMK A01 T00760009  RH  063%=      5-min Rain = 0
KFR1 050738Z 31014KT 08/01 A2994 RMK A01 T00760009  RH  063%=      5-min Rain = 0
KFR1 050739Z 30011KT 08/01 A2994 RMK A01 T00760009  RH  063%=      5-min Rain = 0
KFR1 050740Z 30012G17KT 08/01 A2994 RMK A01 T00760009  RH  062%=      5-min Rain = 0
KFR1 050741Z 31016KT 08/01 A2994 RMK A01 T00760008  RH  062%=      5-min Rain = 0
KFR1 050742Z 30014G20KT 08/01 A2994 RMK A01 T00750008  RH  062%=      5-min Rain = 0
KFR1 050743Z 31010G17KT 08/01 A2994 RMK A01 T00750008  RH  062%=      5-min Rain = 0
KFR1 050744Z 30008KT 08/01 A2994 RMK A01 T00750008  RH  062%=      5-min Rain = 0
KFR1 050745Z 31013KT 07/01 A2994 RMK A01 T00740007  RH  063%=      5-min Rain = 0
KFR1 050746Z 31012G17KT 07/01 A2994 RMK A01 T00730007  RH  063%=      5-min Rain = 0
KFR1 050747Z 30010G15KT 07/01 A2994 RMK A01 T00720007  RH  063%=      5-min Rain = 0
KFR1 050748Z 30012G17KT 07/01 A2994 RMK A01 T00720007  RH  063%=      5-min Rain = 0
KFR1 050749Z 31015KT 07/01 A2994 RMK A01 T00720007  RH  064%=      5-min Rain = 0
KFR1 050750Z 31013G19KT 07/01 A2994 RMK A01 T00710007  RH  064%=      5-min Rain = 0
KFR1 050751Z 31013KT 07/01 A2994 RMK A01 T00710007  RH  064%=      5-min Rain = 0
KFR1 050752Z 31012KT 07/01 A2994 RMK A01 T00710008  RH  064%=      5-min Rain = 0
KFR1 050753Z 30008G14KT 07/01 A2994 RMK A01 T00700008  RH  064%=      5-min Rain = 0
KFR1 050754Z 29008G13KT 07/01 A2994 RMK A01 T00700007  RH  064%=      5-min Rain = 0
KFR1 050755Z 29009G15KT 07/01 A2994 RMK A01 T00690007  RH  064%=      5-min Rain = 0
KFR1 050756Z 30008G14KT 07/01 A2994 RMK A01 T00690006  RH  064%=      5-min Rain = 0
KFR1 050757Z 29006G13KT 07/01 A2994 RMK A01 T00680006  RH  065%=      5-min Rain = 0
KFR1 050758Z 30007KT 07/01 A2994 RMK A01 T00680006  RH  065%=      5-min Rain = 0
KFR1 050759Z 30010G15KT 07/01 A2994 RMK A01 T00670006  RH  065%=      5-min Rain = 0
KFR1 050800Z 31010KT 07/01 A2994 RMK A01 T00670006  RH  065%=      5-min Rain = 0
KFR1 050801Z 31010G15KT 07/01 A2994 RMK A01 T00670006  RH  065%=      5-min Rain = 0
KFR1 050802Z 29008KT 07/01 A2994 RMK A01 T00670007  RH  065%=      5-min Rain = 0
KFR1 050803Z 30008KT 07/01 A2994 RMK A01 T00670006  RH  065%=      5-min Rain = 0
KFR1 050804Z 31006G11KT 07/01 A2994 RMK A01 T00660006  RH  066%=      5-min Rain = 0
KFR1 050805Z 30008G13KT 07/01 A2994 RMK A01 T00660006  RH  066%=      5-min Rain = 0
KFR1 050806Z 30006KT 07/01 A2995 RMK A01 T00660007  RH  066%=      5-min Rain = 0
KFR1 050807Z 31003KT 07/01 A2995 RMK A01 T00650006  RH  066%=      5-min Rain = 0
KFR1 050808Z 32009KT 07/01 A2995 RMK A01 T00650007  RH  066%=      5-min Rain = 0
KFR1 050809Z 32008KT 07/01 A2995 RMK A01 T00650008  RH  067%=      5-min Rain = 0
KFR1 050810Z 31008KT 06/01 A2995 RMK A01 T00640007  RH  067%=      5-min Rain = 0
KFR1 050811Z 32006KT 06/01 A2995 RMK A01 T00640008  RH  067%=      5-min Rain = 0
KFR1 050812Z 31008KT 07/01 A2995 RMK A01 T00650008  RH  067%=      5-min Rain = 0
KFR1 050813Z 31007KT 07/01 A2995 RMK A01 T00650009  RH  067%=      5-min Rain = 0
KFR1 050814Z 31006KT 07/01 A2995 RMK A01 T00650009  RH  067%=      5-min Rain = 0
KFR1 050815Z 30005KT 06/01 A2995 RMK A01 T00640009  RH  068%=      5-min Rain = 0
KFR1 050816Z 31004KT 06/01 A2995 RMK A01 T00640009  RH  068%=      5-min Rain = 0
KFR1 050817Z 30004KT 06/01 A2995 RMK A01 T00640009  RH  068%=      5-min Rain = 0
KFR1 050818Z 30004KT 06/01 A2995 RMK A01 T00630009  RH  068%=      5-min Rain = 0
KFR1 050819Z 29004KT 06/01 A2995 RMK A01 T00630010  RH  069%=      5-min Rain = 0
KFR1 050820Z 30004KT 06/01 A2995 RMK A01 T00630010  RH  069%=      5-min Rain = 0
KFR1 050821Z 28005KT 06/01 A2995 RMK A01 T00630010  RH  069%=      5-min Rain = 0
KFR1 050822Z 29005KT 06/01 A2995 RMK A01 T00630011  RH  069%=      5-min Rain = 0
KFR1 050823Z 27004KT 06/01 A2995 RMK A01 T00630011  RH  069%=      5-min Rain = 0
KFR1 050824Z 27003KT 06/01 A2996 RMK A01 T00640011  RH  069%=      5-min Rain = 0
KFR1 050825Z 27004KT 06/01 A2996 RMK A01 T00630011  RH  069%=      5-min Rain = 0
KFR1 050826Z 25005KT 06/01 A2996 RMK A01 T00620011  RH  069%=      5-min Rain = 0
KFR1 050827Z 24005KT 06/01 A2996 RMK A01 T00620011  RH  070%=      5-min Rain = 0
KFR1 050828Z 25006KT 06/01 A2996 RMK A01 T00620010  RH  070%=      5-min Rain = 0
KFR1 050829Z 26006KT 06/01 A2996 RMK A01 T00620010  RH  069%=      5-min Rain = 0
KFR1 050830Z 25007KT 06/01 A2996 RMK A01 T00630011  RH  069%=      5-min Rain = 0
KFR1 050831Z 26008KT 06/01 A2996 RMK A01 T00630011  RH  069%=      5-min Rain = 0
KFR1 050832Z 27006KT 06/01 A2996 RMK A01 T00630011  RH  069%=      5-min Rain = 0
KFR1 050833Z 26007KT 06/01 A2996 RMK A01 T00630011  RH  070%=      5-min Rain = 0
KFR1 050834Z 25009KT 06/01 A2995 RMK A01 T00620012  RH  070%=      5-min Rain = 0
KFR1 050835Z 26011KT 06/01 A2995 RMK A01 T00630012  RH  070%=      5-min Rain = 0
KFR1 050836Z 26010KT 06/01 A2995 RMK A01 T00630012  RH  070%=      5-min Rain = 0
KFR1 050837Z 26009KT 06/01 A2995 RMK A01 T00630012  RH  070%=      5-min Rain = 0
KFR1 050838Z 26010KT 06/01 A2995 RMK A01 T00630013  RH  070%=      5-min Rain = 0
KFR1 050839Z 27011KT 06/01 A2995 RMK A01 T00640012  RH  070%=      5-min Rain = 0
KFR1 050840Z 27009KT 06/01 A2995 RMK A01 T00640012  RH  070%=      5-min Rain = 0
KFR1 050841Z 28008KT 06/01 A2995 RMK A01 T00640012  RH  070%=      5-min Rain = 0
KFR1 050842Z 28010KT 06/01 A2996 RMK A01 T00640013  RH  070%=      5-min Rain = 0
KFR1 050843Z 27009KT 06/01 A2995 RMK A01 T00630013  RH  070%=      5-min Rain = 0
KFR1 050844Z 28009KT 06/01 A2995 RMK A01 T00630013  RH  070%=      5-min Rain = 0
KFR1 050845Z 29009KT 06/01 A2995 RMK A01 T00620014  RH  071%=      5-min Rain = 0
KFR1 050846Z 28008KT 06/01 A2995 RMK A01 T00620014  RH  071%=      5-min Rain = 0
KFR1 050847Z 28010G17KT 06/01 A2995 RMK A01 T00620014  RH  071%=      5-min Rain = 0
KFR1 050848Z 28011KT 06/02 A2995 RMK A01 T00620016  RH  072%=      5-min Rain = 0
KFR1 050849Z 29009KT 06/02 A2995 RMK A01 T00630016  RH  072%=      5-min Rain = 0
KFR1 050850Z 29010KT 06/02 A2995 RMK A01 T00630016  RH  072%=      5-min Rain = 0
KFR1 050851Z 29010KT 06/02 A2995 RMK A01 T00630016  RH  072%=      5-min Rain = 0
KFR1 050852Z 29011KT 06/02 A2995 RMK A01 T00640017  RH  072%=      5-min Rain = 0
KFR1 050853Z 30010KT 06/02 A2995 RMK A01 T00640017  RH  072%=      5-min Rain = 0
KFR1 050854Z 30010KT 06/02 A2995 RMK A01 T00640017  RH  072%=      5-min Rain = 0
KFR1 050855Z 30008KT 06/02 A2995 RMK A01 T00640018  RH  072%=      5-min Rain = 0
KFR1 050856Z 30010G16KT 06/02 A2995 RMK A01 T00640018  RH  072%=      5-min Rain = 0
KFR1 050857Z 31011KT 06/02 A2995 RMK A01 T00640019  RH  073%=      5-min Rain = 0
KFR1 050858Z 30008KT 07/02 A2995 RMK A01 T00650019  RH  073%=      5-min Rain = 0
KFR1 050859Z 31009G16KT 07/02 A2995 RMK A01 T00660020  RH  072%=      5-min Rain = 0
KFR1 050900Z 30010KT 07/02 A2995 RMK A01 T00650021  RH  073%=      5-min Rain = 0
KFR1 050901Z 31008KT 07/02 A2995 RMK A01 T00650021  RH  073%=      5-min Rain = 0
KFR1 050902Z 30007KT 07/02 A2995 RMK A01 T00660021  RH  073%=      5-min Rain = 0
KFR1 050903Z 29008KT 07/02 A2995 RMK A01 T00660021  RH  073%=      5-min Rain = 0
KFR1 050904Z 30006KT 07/02 A2995 RMK A01 T00650021  RH  073%=      5-min Rain = 0
KFR1 050905Z 30008KT 07/02 A2995 RMK A01 T00650021  RH  073%=      5-min Rain = 0
KFR1 050906Z 30006KT 07/02 A2996 RMK A01 T00650021  RH  074%=      5-min Rain = 0
KFR1 050907Z 30007KT 07/02 A2996 RMK A01 T00650022  RH  074%=      5-min Rain = 0
KFR1 050908Z 29007KT 07/02 A2996 RMK A01 T00650022  RH  074%=      5-min Rain = 0
KFR1 050909Z 30007KT 07/02 A2996 RMK A01 T00650023  RH  074%=      5-min Rain = 0
KFR1 050910Z 29007KT 07/02 A2996 RMK A01 T00660023  RH  074%=      5-min Rain = 0
KFR1 050911Z 30005KT 07/02 A2996 RMK A01 T00660023  RH  074%=      5-min Rain = 0
KFR1 050912Z 30008KT 07/02 A2996 RMK A01 T00660024  RH  074%=      5-min Rain = 0
KFR1 050913Z 29007KT 07/03 A2996 RMK A01 T00670025  RH  074%=      5-min Rain = 0
KFR1 050914Z 30006KT 07/02 A2996 RMK A01 T00670024  RH  074%=      5-min Rain = 0
KFR1 050915Z 31006KT 07/02 A2996 RMK A01 T00670024  RH  074%=      5-min Rain = 0
KFR1 050916Z 31004KT 07/02 A2996 RMK A01 T00670024  RH  074%=      5-min Rain = 0
KFR1 050917Z 31004KT 07/02 A2996 RMK A01 T00670024  RH  074%=      5-min Rain = 0
KFR1 050918Z 30005KT 07/02 A2996 RMK A01 T00670024  RH  074%=      5-min Rain = 0
KFR1 050919Z 29005KT 07/02 A2996 RMK A01 T00670024  RH  074%=      5-min Rain = 0
KFR1 050920Z 29005KT 07/02 A2996 RMK A01 T00670024  RH  074%=      5-min Rain = 0
KFR1 050921Z 30005KT 07/02 A2996 RMK A01 T00670024  RH  074%=      5-min Rain = 0
KFR1 050922Z 29005KT 07/03 A2996 RMK A01 T00670025  RH  074%=      5-min Rain = 0
KFR1 050923Z 29005KT 07/03 A2996 RMK A01 T00670025  RH  074%=      5-min Rain = 0
KFR1 050924Z 31005KT 07/03 A2996 RMK A01 T00670025  RH  074%=      5-min Rain = 0
KFR1 050925Z 29004KT 07/03 A2996 RMK A01 T00680026  RH  074%=      5-min Rain = 0
KFR1 050926Z 29003KT 07/03 A2996 RMK A01 T00680025  RH  074%=      5-min Rain = 0
KFR1 050927Z 31003KT 07/03 A2996 RMK A01 T00680026  RH  074%=      5-min Rain = 0
KFR1 050928Z 30005KT 07/03 A2996 RMK A01 T00680026  RH  074%=      5-min Rain = 0
KFR1 050929Z 30003KT 07/03 A2996 RMK A01 T00680026  RH  075%=      5-min Rain = 0
KFR1 050930Z 31003KT 07/03 A2996 RMK A01 T00690027  RH  075%=      5-min Rain = 0
KFR1 050931Z 31004KT 07/03 A2996 RMK A01 T00690027  RH  075%=      5-min Rain = 0
KFR1 050932Z 29004KT 07/03 A2996 RMK A01 T00690027  RH  075%=      5-min Rain = 0
KFR1 050933Z 30005KT 07/03 A2996 RMK A01 T00700028  RH  075%=      5-min Rain = 0
KFR1 050934Z 28005KT 07/03 A2996 RMK A01 T00700028  RH  074%=      5-min Rain = 0
KFR1 050935Z 29004KT 07/03 A2996 RMK A01 T00700028  RH  074%=      5-min Rain = 0
KFR1 050936Z 31004KT 07/03 A2996 RMK A01 T00710028  RH  074%=      5-min Rain = 0
KFR1 050937Z 30007KT 07/03 A2996 RMK A01 T00710029  RH  074%=      5-min Rain = 0
KFR1 050938Z 33006KT 07/03 A2996 RMK A01 T00720031  RH  075%=      5-min Rain = 0
KFR1 050939Z 31004KT 07/03 A2996 RMK A01 T00730032  RH  075%=      5-min Rain = 0
KFR1 050940Z 32006KT 07/03 A2996 RMK A01 T00740031  RH  074%=      5-min Rain = 0
KFR1 050941Z 32006KT 07/03 A2996 RMK A01 T00740032  RH  074%=      5-min Rain = 0
KFR1 050942Z 31006KT 07/03 A2996 RMK A01 T00740031  RH  074%=      5-min Rain = 0
KFR1 050943Z 32005KT 07/03 A2996 RMK A01 T00740031  RH  074%=      5-min Rain = 0
KFR1 050944Z 32009KT 07/03 A2996 RMK A01 T00740033  RH  075%=      5-min Rain = 0
KFR1 050945Z 33011KT 08/04 A2996 RMK A01 T00760035  RH  076%=      5-min Rain = 0
KFR1 050946Z 33008KT 08/04 A2996 RMK A01 T00770038  RH  076%=      5-min Rain = 0
KFR1 050947Z 34009KT 08/04 A2996 RMK A01 T00780037  RH  075%=      5-min Rain = 0
KFR1 050948Z 35010KT 08/04 A2996 RMK A01 T00790039  RH  076%=      5-min Rain = 0
KFR1 050949Z 35008KT 08/04 A2996 RMK A01 T00790039  RH  076%=      5-min Rain = 0
KFR1 050950Z 35008KT 08/04 A2996 RMK A01 T00800039  RH  076%=      5-min Rain = 0
KFR1 050951Z 35009KT 08/04 A2996 RMK A01 T00800039  RH  076%=      5-min Rain = 0
KFR1 050952Z 36011KT 08/04 A2996 RMK A01 T00790040  RH  076%=      5-min Rain = 0
KFR1 050953Z 35011KT 08/04 A2996 RMK A01 T00800042  RH  077%=      5-min Rain = 0
KFR1 050954Z 35011KT 08/04 A2996 RMK A01 T00810044  RH  078%=      5-min Rain = 0
KFR1 050955Z 36011KT 08/04 A2996 RMK A01 T00810044  RH  078%=      5-min Rain = 0
KFR1 050956Z 35010KT 08/04 A2997 RMK A01 T00810044  RH  078%=      5-min Rain = 0
KFR1 050957Z 00011KT 08/05 A2997 RMK A01 T00810045  RH  078%=      5-min Rain = 0
KFR1 050958Z 35011KT 08/05 A2997 RMK A01 T00810045  RH  078%=      5-min Rain = 0
KFR1 050959Z 35010KT 08/05 A2997 RMK A01 T00810046  RH  079%=      5-min Rain = 0
KFR1 051000Z 35010KT 08/05 A2996 RMK A01 T00800046  RH  079%=      5-min Rain = 0
KFR1 051001Z 36009KT 08/05 A2996 RMK A01 T00800046  RH  079%=      5-min Rain = 0
KFR1 051002Z 36011KT 08/05 A2996 RMK A01 T00800046  RH  079%=      5-min Rain = 0
KFR1 051003Z 36009KT 08/05 A2996 RMK A01 T00800046  RH  079%=      5-min Rain = 0
KFR1 051004Z 36011KT 08/05 A2996 RMK A01 T00790046  RH  079%=      5-min Rain = 0
KFR1 051005Z 00011KT 08/05 A2996 RMK A01 T00790046  RH  080%=      5-min Rain = 0
KFR1 051006Z 00011KT 08/05 A2996 RMK A01 T00800047  RH  080%=      5-min Rain = 0
KFR1 051007Z 36013KT 08/05 A2996 RMK A01 T00800047  RH  080%=      5-min Rain = 0
KFR1 051008Z 00011KT 08/05 A2996 RMK A01 T00800047  RH  080%=      5-min Rain = 0
KFR1 051009Z 00010G15KT 08/05 A2996 RMK A01 T00800047  RH  080%=      5-min Rain = 0
KFR1 051010Z 00011KT 08/05 A2996 RMK A01 T00800047  RH  080%=      5-min Rain = 0
KFR1 051011Z 01011G16KT 08/05 A2997 RMK A01 T00800047  RH  080%=      5-min Rain = 0
KFR1 051012Z 01011KT 08/05 A2997 RMK A01 T00790046  RH  080%=      5-min Rain = 0
KFR1 051013Z 36010G15KT 08/05 A2997 RMK A01 T00790047  RH  080%=      5-min Rain = 0
KFR1 051014Z 01010G16KT 08/05 A2997 RMK A01 T00790047  RH  080%=      5-min Rain = 0
KFR1 051015Z 00014KT 08/05 A2997 RMK A01 T00790047  RH  080%=      5-min Rain = 0
KFR1 051016Z 00012G17KT 08/05 A2997 RMK A01 T00790047  RH  080%=      5-min Rain = 0
KFR1 051017Z 36011KT 08/05 A2997 RMK A01 T00790047  RH  080%=      5-min Rain = 0
KFR1 051018Z 36013G18KT 08/05 A2997 RMK A01 T00790047  RH  080%=      5-min Rain = 0
KFR1 051019Z 36014KT 08/05 A2997 RMK A01 T00790048  RH  081%=      5-min Rain = 0
KFR1 051020Z 36012KT 08/05 A2997 RMK A01 T00790048  RH  081%=      5-min Rain = 0
KFR1 051021Z 01014KT 08/05 A2997 RMK A01 T00780048  RH  081%=      5-min Rain = 0
KFR1 051022Z 01013KT 08/05 A2997 RMK A01 T00780047  RH  081%=      5-min Rain = 0
KFR1 051023Z 02012KT 08/05 A2997 RMK A01 T00780048  RH  081%=      5-min Rain = 0
KFR1 051024Z 00013G20KT 08/05 A2997 RMK A01 T00770047  RH  081%=      5-min Rain = 0
KFR1 051025Z 36016KT 08/05 A2997 RMK A01 T00770048  RH  081%=      5-min Rain = 0
KFR1 051026Z 01015KT 08/05 A2997 RMK A01 T00770048  RH  082%=      5-min Rain = 0
KFR1 051027Z 01012KT 08/05 A2997 RMK A01 T00760047  RH  082%=      5-min Rain = 0
KFR1 051028Z 01014G19KT 08/05 A2997 RMK A01 T00760047  RH  082%=      5-min Rain = 0
KFR1 051029Z 00016KT 08/05 A2997 RMK A01 T00760047  RH  082%=      5-min Rain = 0
KFR1 051030Z 00019KT 08/05 A2998 RMK A01 T00760048  RH  082%=      5-min Rain = 0
KFR1 051031Z 36017KT 08/05 A2998 RMK A01 T00750047  RH  083%=      5-min Rain = 0
KFR1 051032Z 00016KT 08/05 A2998 RMK A01 T00750048  RH  083%=      5-min Rain = 0
KFR1 051033Z 00016KT 08/05 A2998 RMK A01 T00750048  RH  083%=      5-min Rain = 0
KFR1 051034Z 35013G18KT 08/05 A2998 RMK A01 T00750047  RH  083%=      5-min Rain = 0
KFR1 051035Z 36014KT 08/05 A2998 RMK A01 T00750047  RH  083%=      5-min Rain = 0
KFR1 051036Z 00013KT 08/05 A2998 RMK A01 T00750047  RH  083%=      5-min Rain = 0
KFR1 051037Z 35012KT 08/05 A2998 RMK A01 T00750047  RH  083%=      5-min Rain = 0
KFR1 051038Z 00016KT 07/05 A2998 RMK A01 T00740046  RH  082%=      5-min Rain = 0
KFR1 051039Z 00017G22KT 08/05 A2998 RMK A01 T00750046  RH  082%=      5-min Rain = 0
KFR1 051040Z 36017KT 08/05 A2998 RMK A01 T00750046  RH  082%=      5-min Rain = 0
KFR1 051041Z 01014KT 08/05 A2998 RMK A01 T00750046  RH  082%=      5-min Rain = 0
KFR1 051042Z 00015KT 08/05 A2998 RMK A01 T00750046  RH  082%=      5-min Rain = 0
KFR1 051043Z 01012G17KT 07/05 A2998 RMK A01 T00740045  RH  082%=      5-min Rain = 0
KFR1 051044Z 00011KT 07/05 A2998 RMK A01 T00740045  RH  082%=      5-min Rain = 0
KFR1 051045Z 01011G16KT 07/05 A2999 RMK A01 T00740045  RH  082%=      5-min Rain = 0
KFR1 051046Z 01011KT 07/05 A2999 RMK A01 T00740045  RH  082%=      5-min Rain = 0
KFR1 051047Z 00010G15KT 07/05 A2999 RMK A01 T00740045  RH  082%=      5-min Rain = 0
KFR1 051048Z 01010KT 07/05 A2999 RMK A01 T00740045  RH  082%=      5-min Rain = 0
KFR1 051049Z 01009KT 07/05 A2999 RMK A01 T00740046  RH  082%=      5-min Rain = 0
KFR1 051050Z 00012KT 07/05 A2999 RMK A01 T00730046  RH  083%=      5-min Rain = 0
KFR1 051051Z 00010KT 07/05 A2999 RMK A01 T00740046  RH  083%=      5-min Rain = 0
KFR1 051052Z 01013KT 07/05 A2999 RMK A01 T00740046  RH  083%=      5-min Rain = 0
KFR1 051053Z 01012KT 08/05 A2999 RMK A01 T00750047  RH  083%=      5-min Rain = 0
KFR1 051054Z 01011KT 08/05 A2999 RMK A01 T00750047  RH  082%=      5-min Rain = 0
KFR1 051055Z 36012KT 08/05 A2999 RMK A01 T00750047  RH  083%=      5-min Rain = 0
KFR1 051056Z 00012KT 08/05 A2999 RMK A01 T00750048  RH  083%=      5-min Rain = 0
KFR1 051057Z 00010KT 08/05 A2999 RMK A01 T00760048  RH  082%=      5-min Rain = 0
KFR1 051058Z 01012KT 08/05 A2999 RMK A01 T00760048  RH  082%=      5-min Rain = 0
KFR1 051059Z 36011KT 08/05 A2999 RMK A01 T00760048  RH  082%=      5-min Rain = 0
KFR1 051100Z 36012G17KT 08/05 A2999 RMK A01 T00770048  RH  082%=      5-min Rain = 0
KFR1 051101Z 35012G17KT 08/05 A2999 RMK A01 T00780049  RH  082%=      5-min Rain = 0
KFR1 051102Z 35014KT 08/05 A2999 RMK A01 T00780049  RH  082%=      5-min Rain = 0
KFR1 051103Z 36016G21KT 08/05 A2999 RMK A01 T00790050  RH  082%=      5-min Rain = 0
KFR1 051104Z 01012KT 08/05 A30 RMK A01 T00800050  RH  081%=      5-min Rain = 0
KFR1 051105Z 00011KT 08/05 A30 RMK A01 T00800049  RH  081%=      5-min Rain = 0
KFR1 051106Z 01009KT 08/05 A30 RMK A01 T00800049  RH  081%=      5-min Rain = 0
KFR1 051107Z 00011G16KT 08/05 A30 RMK A01 T00790049  RH  081%=      5-min Rain = 0
KFR1 051108Z 01013KT 08/05 A30 RMK A01 T00790049  RH  081%=      5-min Rain = 0
KFR1 051109Z 00014G19KT 08/05 A30 RMK A01 T00790050  RH  082%=      5-min Rain = 0
KFR1 051110Z 01015KT 08/05 A30 RMK A01 T00790050  RH  082%=      5-min Rain = 0
KFR1 051111Z 01013KT 08/05 A30 RMK A01 T00800050  RH  081%=      5-min Rain = 0
KFR1 051112Z 01014KT 08/05 A30 RMK A01 T00810050  RH  081%=      5-min Rain = 0
KFR1 051113Z 00013KT 08/05 A3001 RMK A01 T00800050  RH  081%=      5-min Rain = 0
KFR1 051114Z 36012KT 08/05 A3001 RMK A01 T00800050  RH  081%=      5-min Rain = 0
KFR1 051115Z 36013KT 08/05 A3001 RMK A01 T00800049  RH  081%=      5-min Rain = 0
KFR1 051116Z 01011KT 08/05 A3001 RMK A01 T00800050  RH  081%=      5-min Rain = 0
KFR1 051117Z 01015G21KT 08/05 A3001 RMK A01 T00790049  RH  081%=      5-min Rain = 0
KFR1 051118Z 01013G19KT 08/05 A3001 RMK A01 T00800048  RH  081%=      5-min Rain = 0
KFR1 051119Z 01015G20KT 08/05 A3001 RMK A01 T00800048  RH  080%=      5-min Rain = 0
KFR1 051120Z 01016G23KT 08/05 A3001 RMK A01 T00800048  RH  080%=      5-min Rain = 0
KFR1 051121Z 01017KT 08/05 A3001 RMK A01 T00800047  RH  080%=      5-min Rain = 0
KFR1 051122Z 01017KT 08/05 A3001 RMK A01 T00800047  RH  080%=      5-min Rain = 0
KFR1 051123Z 01015G28KT 08/05 A3001 RMK A01 T00800047  RH  080%=      5-min Rain = 0
KFR1 051124Z 01018G24KT 08/05 A3001 RMK A01 T00800047  RH  080%=      5-min Rain = 0
KFR1 051125Z 01018KT 08/05 A3001 RMK A01 T00800047  RH  080%=      5-min Rain = 0
KFR1 051126Z 01015G20KT 08/05 A3001 RMK A01 T00800047  RH  080%=      5-min Rain = 0
KFR1 051127Z 00014G19KT 08/05 A3001 RMK A01 T00790047  RH  080%=      5-min Rain = 0
KFR1 051128Z 01018G26KT 08/05 A3001 RMK A01 T00790047  RH  080%=      5-min Rain = 0
KFR1 051129Z 01020G26KT 08/05 A3001 RMK A01 T00790046  RH  080%=      5-min Rain = 0
KFR1 051130Z 02017G23KT 08/05 A3001 RMK A01 T00790045  RH  079%=      5-min Rain = 0
KFR1 051131Z 01019G24KT 08/05 A3001 RMK A01 T00790045  RH  079%=      5-min Rain = 0
KFR1 051132Z 01018G25KT 08/05 A3001 RMK A01 T00790046  RH  079%=      5-min Rain = 0
KFR1 051133Z 01019G26KT 08/05 A3001 RMK A01 T00790045  RH  079%=      5-min Rain = 0
KFR1 051134Z 02019KT 08/05 A3002 RMK A01 T00780045  RH  079%=      5-min Rain = 0
KFR1 051135Z 02018G23KT 08/04 A3002 RMK A01 T00780044  RH  079%=      5-min Rain = 0
KFR1 051136Z 02015KT 08/04 A3002 RMK A01 T00770043  RH  079%=      5-min Rain = 0
KFR1 051137Z 02017G24KT 08/04 A3002 RMK A01 T00760043  RH  079%=      5-min Rain = 0
KFR1 051138Z 03016G26KT 08/04 A3002 RMK A01 T00750041  RH  079%=      5-min Rain = 0
KFR1 051139Z 02019G24KT 07/04 A3002 RMK A01 T00730039  RH  079%=      5-min Rain = 0
KFR1 051140Z 01017G25KT 07/04 A3002 RMK A01 T00720038  RH  079%=      5-min Rain = 0
KFR1 051141Z 02018G25KT 07/04 A3002 RMK A01 T00710037  RH  079%=      5-min Rain = 0
KFR1 051142Z 02012G17KT 07/04 A3003 RMK A01 T00700037  RH  079%=      5-min Rain = 0
KFR1 051143Z 04017KT 07/04 A3003 RMK A01 T00700037  RH  080%=      5-min Rain = 0
KFR1 051144Z 04018KT 07/04 A3003 RMK A01 T00690036  RH  079%=      5-min Rain = 0
KFR1 051145Z 04015KT 07/03 A3003 RMK A01 T00680034  RH  079%=      5-min Rain = 0
KFR1 051146Z 04015G20KT 07/03 A3003 RMK A01 T00670033  RH  079%=      5-min Rain = 0
KFR1 051147Z 04015KT 07/03 A3003 RMK A01 T00650033  RH  079%=      5-min Rain = 0
KFR1 051148Z 04019KT 07/03 A3003 RMK A01 T00650032  RH  079%=      5-min Rain = 0
KFR1 051149Z 04015G20KT 06/03 A3003 RMK A01 T00640031  RH  079%=      5-min Rain = 0
KFR1 051150Z 04015G20KT 06/03 A3004 RMK A01 T00630030  RH  079%=      5-min Rain = 0
KFR1 051151Z 03011G16KT 06/03 A3004 RMK A01 T00620030  RH  080%=      5-min Rain = 0
KFR1 051152Z 04013KT 06/03 A3004 RMK A01 T00610029  RH  080%=      5-min Rain = 0
KFR1 051153Z 03012KT 06/03 A3004 RMK A01 T00610029  RH  080%=      5-min Rain = 0
KFR1 051154Z 03010KT 06/03 A3004 RMK A01 T00600028  RH  080%=      5-min Rain = 0
KFR1 051155Z 03013KT 06/03 A3004 RMK A01 T00600028  RH  080%=      5-min Rain = 0
KFR1 051156Z 04016KT 06/03 A3004 RMK A01 T00590028  RH  080%=      5-min Rain = 0
KFR1 051157Z 04015KT 06/03 A3004 RMK A01 T00580027  RH  080%=      5-min Rain = 0
KFR1 051158Z 03011G16KT 06/03 A3004 RMK A01 T00580027  RH  081%=      5-min Rain = 0
KFR1 051159Z 04018G24KT 06/03 A3004 RMK A01 T00570027  RH  081%=      5-min Rain = 0
KFR1 051200Z 03015KT 06/03 A3004 RMK A01 T00560025  RH  081%=      5-min Rain = 0
KFR1 051201Z 03014G19KT 06/03 A3004 RMK A01 T00560025  RH  081%=      5-min Rain = 0
KFR1 051202Z 04017KT 06/03 A3004 RMK A01 T00560025  RH  081%=      5-min Rain = 0
KFR1 051203Z 04014KT 06/03 A3004 RMK A01 T00560025  RH  080%=      5-min Rain = 0
KFR1 051204Z 03012KT 06/02 A3004 RMK A01 T00550024  RH  081%=      5-min Rain = 0
KFR1 051205Z 04014KT 06/02 A3004 RMK A01 T00550024  RH  081%=      5-min Rain = 0
KFR1 051206Z 03014KT 06/02 A3004 RMK A01 T00550024  RH  080%=      5-min Rain = 0
KFR1 051207Z 04013KT 06/02 A3004 RMK A01 T00550024  RH  080%=      5-min Rain = 0
KFR1 051208Z 04013KT 06/02 A3004 RMK A01 T00550024  RH  080%=      5-min Rain = 0
KFR1 051209Z 03016KT 05/02 A3004 RMK A01 T00540023  RH  080%=      5-min Rain = 0
KFR1 051210Z 03013G18KT 05/02 A3005 RMK A01 T00540023  RH  081%=      5-min Rain = 0
KFR1 051211Z 03016KT 05/02 A3005 RMK A01 T00530023  RH  081%=      5-min Rain = 0
KFR1 051212Z 04016KT 05/02 A3005 RMK A01 T00530023  RH  081%=      5-min Rain = 0
KFR1 051213Z 03013KT 05/02 A3005 RMK A01 T00520022  RH  081%=      5-min Rain = 0
KFR1 051214Z 03014KT 05/02 A3005 RMK A01 T00520023  RH  081%=      5-min Rain = 0
KFR1 051215Z 04014KT 05/02 A3005 RMK A01 T00520023  RH  082%=      5-min Rain = 0
KFR1 051216Z 03015G20KT 05/02 A3005 RMK A01 T00520023  RH  082%=      5-min Rain = 0
KFR1 051217Z 03015KT 05/02 A3005 RMK A01 T00520024  RH  082%=      5-min Rain = 0
KFR1 051218Z 03012G18KT 05/02 A3005 RMK A01 T00520024  RH  082%=      5-min Rain = 0
KFR1 051219Z 04015KT 05/02 A3005 RMK A01 T00520024  RH  082%=      5-min Rain = 0
KFR1 051220Z 04017KT 05/02 A3005 RMK A01 T00520024  RH  083%=      5-min Rain = 0
KFR1 051221Z 03014G19KT 05/02 A3005 RMK A01 T00520024  RH  082%=      5-min Rain = 0
KFR1 051222Z 03015KT 05/02 A3005 RMK A01 T00520024  RH  082%=      5-min Rain = 0
KFR1 051223Z 04013KT 05/02 A3005 RMK A01 T00520024  RH  083%=      5-min Rain = 0
KFR1 051224Z 04015KT 05/02 A3005 RMK A01 T00520024  RH  082%=      5-min Rain = 0
KFR1 051225Z 04017KT 05/02 A3005 RMK A01 T00510024  RH  083%=      5-min Rain = 0
KFR1 051226Z 04016KT 05/02 A3005 RMK A01 T00510024  RH  083%=      5-min Rain = 0
KFR1 051227Z 04018KT 05/02 A3005 RMK A01 T00510024  RH  083%=      5-min Rain = 0
KFR1 051228Z 04017KT 05/02 A3006 RMK A01 T00510024  RH  083%=      5-min Rain = 0
KFR1 051229Z 04016KT 05/02 A3006 RMK A01 T00510024  RH  082%=      5-min Rain = 0
KFR1 051230Z 04017KT 05/02 A3006 RMK A01 T00510024  RH  082%=      5-min Rain = 0
KFR1 051231Z 03017KT 05/02 A3006 RMK A01 T00510023  RH  082%=      5-min Rain = 0
KFR1 051232Z 04017KT 05/02 A3006 RMK A01 T00510023  RH  082%=      5-min Rain = 0
KFR1 051233Z 04016KT 05/02 A3006 RMK A01 T00510023  RH  082%=      5-min Rain = 0
KFR1 051234Z 04016KT 05/02 A3006 RMK A01 T00510023  RH  082%=      5-min Rain = 0
KFR1 051235Z 04018KT 05/02 A3006 RMK A01 T00510023  RH  082%=      5-min Rain = 0
KFR1 051236Z 04016G24KT 05/03 A3006 RMK A01 T00510025  RH  083%=      5-min Rain = 0
KFR1 051237Z 04016KT 05/03 A3006 RMK A01 T00510026  RH  084%=      5-min Rain = 0
KFR1 051238Z 04018KT 05/03 A3006 RMK A01 T00520027  RH  084%=      5-min Rain = 0
KFR1 051239Z 04014KT 05/03 A3006 RMK A01 T00520028  RH  085%=      5-min Rain = 0
KFR1 051240Z 05015G22KT 05/03 A3007 RMK A01 T00530029  RH  085%=      5-min Rain = 0
KFR1 051241Z 05014G19KT 05/03 A3007 RMK A01 T00530031  RH  086%=      5-min Rain = 0
KFR1 051242Z 05013KT 05/03 A3007 RMK A01 T00530031  RH  086%=      5-min Rain = 0
KFR1 051243Z 05015G22KT 05/03 A3007 RMK A01 T00540032  RH  086%=      5-min Rain = 0
KFR1 051244Z 05017KT 06/04 A3007 RMK A01 T00550035  RH  087%=      5-min Rain = 0
KFR1 051245Z 05013KT 06/04 A3007 RMK A01 T00550036  RH  087%=      5-min Rain = 0
KFR1 051246Z 04017G24KT 06/04 A3007 RMK A01 T00560036  RH  087%=      5-min Rain = 0
KFR1 051247Z 04014G19KT 06/04 A3007 RMK A01 T00560039  RH  089%=      5-min Rain = 0
KFR1 051248Z 05014KT 06/04 A3007 RMK A01 T00570040  RH  089%=      5-min Rain = 0
KFR1 051249Z 04016KT 06/04 A3007 RMK A01 T00580041  RH  089%=      5-min Rain = 0
KFR1 051250Z 04015G20KT 06/04 A3008 RMK A01 T00580042  RH  089%=      5-min Rain = 0
KFR1 051251Z 05021KT 06/04 A3007 RMK A01 T00590044  RH  090%=      5-min Rain = 0
KFR1 051252Z 04018G23KT 06/05 A3007 RMK A01 T00600046  RH  091%=      5-min Rain = 0
KFR1 051253Z 04019KT 06/05 A3007 RMK A01 T00610048  RH  091%=      5-min Rain = 0
KFR1 051254Z 04019G26KT 06/05 A3007 RMK A01 T00610048  RH  092%=      5-min Rain = 0
KFR1 051255Z 04017G24KT 06/05 A3007 RMK A01 T00610049  RH  092%=      5-min Rain = 0
KFR1 051256Z 04019G24KT 06/05 A3008 RMK A01 T00620050  RH  092%=      5-min Rain = 0
KFR1 051257Z 05013KT 06/05 A3008 RMK A01 T00630051  RH  092%=      5-min Rain = 0
KFR1 051258Z 05014KT 06/05 A3008 RMK A01 T00630050  RH  092%=      5-min Rain = 0
KFR1 051259Z 04017G22KT 06/05 A3008 RMK A01 T00620050  RH  092%=      5-min Rain = 0
KFR1 051300Z 04016KT 06/05 A3008 RMK A01 T00630051  RH  092%=      5-min Rain = 0
KFR1 051301Z 04016KT 06/05 A3008 RMK A01 T00630052  RH  092%=      5-min Rain = 0
KFR1 051302Z 05014KT 06/05 A3009 RMK A01 T00630052  RH  092%=      5-min Rain = 0
KFR1 051303Z 05016KT 06/05 A3009 RMK A01 T00640052  RH  092%=      5-min Rain = 0
KFR1 051304Z 04014KT 06/05 A3009 RMK A01 T00640054  RH  093%=      5-min Rain = 0
KFR1 051305Z 04015G20KT 07/06 A3009 RMK A01 T00650055  RH  093%=      5-min Rain = 0
KFR1 051306Z 04014G20KT 07/06 A3009 RMK A01 T00660057  RH  094%=      5-min Rain = 0
KFR1 051307Z 04015G20KT 07/06 A3009 RMK A01 T00670057  RH  094%=      5-min Rain = 0
KFR1 051308Z 04018KT 07/06 A3009 RMK A01 T00680059  RH  094%=      5-min Rain = 0
KFR1 051309Z 04017KT 07/06 A3009 RMK A01 T00690060  RH  094%=      5-min Rain = 0
KFR1 051310Z 04016G22KT 07/06 A3009 RMK A01 T00700060  RH  093%=      5-min Rain = 0
KFR1 051311Z 04019G25KT 07/06 A3009 RMK A01 T00700060  RH  093%=      5-min Rain = 0
KFR1 051312Z 04016KT 07/06 A3009 RMK A01 T00700059  RH  093%=      5-min Rain = 0
KFR1 051313Z 04020KT 07/06 A3009 RMK A01 T00710059  RH  093%=      5-min Rain = 0
KFR1 051314Z 05014KT 07/06 A3009 RMK A01 T00710060  RH  092%=      5-min Rain = 0
KFR1 051315Z 04014KT 07/06 A301 RMK A01 T00710060  RH  092%=      5-min Rain = 0
KFR1 051316Z 04013G18KT 07/06 A301 RMK A01 T00710060  RH  092%=      5-min Rain = 0
KFR1 051317Z 04014G19KT 07/06 A301 RMK A01 T00720060  RH  092%=      5-min Rain = 0
KFR1 051318Z 04017KT 07/06 A301 RMK A01 T00720060  RH  092%=      5-min Rain = 0
KFR1 051319Z 04015KT 07/06 A301 RMK A01 T00720060  RH  092%=      5-min Rain = 0
KFR1 051320Z 04016KT 07/06 A301 RMK A01 T00720060  RH  092%=      5-min Rain = 0
KFR1 051321Z 04016KT 07/06 A301 RMK A01 T00730060  RH  092%=      5-min Rain = 0
KFR1 051322Z 04013G18KT 07/06 A301 RMK A01 T00730060  RH  092%=      5-min Rain = 0
KFR1 051323Z 04013KT 07/06 A301 RMK A01 T00730060  RH  091%=      5-min Rain = 0
KFR1 051324Z 03012KT 07/06 A301 RMK A01 T00740059  RH  091%=      5-min Rain = 0
KFR1 051325Z 04014KT 07/06 A301 RMK A01 T00740059  RH  090%=      5-min Rain = 0
KFR1 051326Z 04017KT 07/06 A301 RMK A01 T00740058  RH  090%=      5-min Rain = 0
KFR1 051327Z 04016KT 08/06 A301 RMK A01 T00750058  RH  089%=      5-min Rain = 0
KFR1 051328Z 04016KT 08/06 A3011 RMK A01 T00760057  RH  088%=      5-min Rain = 0
KFR1 051329Z 04014KT 08/06 A3011 RMK A01 T00760057  RH  087%=      5-min Rain = 0
KFR1 051330Z 04015KT 08/06 A3011 RMK A01 T00760056  RH  087%=      5-min Rain = 0
KFR1 051331Z 04015KT 08/06 A3011 RMK A01 T00770055  RH  086%=      5-min Rain = 0
KFR1 051332Z 03014G19KT 08/05 A3011 RMK A01 T00770054  RH  086%=      5-min Rain = 0
KFR1 051333Z 03012KT 08/05 A3011 RMK A01 T00770054  RH  085%=      5-min Rain = 0
KFR1 051334Z 02013G18KT 08/05 A3011 RMK A01 T00770053  RH  085%=      5-min Rain = 0
KFR1 051335Z 03012KT 08/05 A3012 RMK A01 T00770052  RH  084%=      5-min Rain = 0
KFR1 051336Z 03013G18KT 08/05 A3012 RMK A01 T00780051  RH  083%=      5-min Rain = 0
KFR1 051337Z 02016G21KT 08/05 A3012 RMK A01 T00780050  RH  083%=      5-min Rain = 0
KFR1 051338Z 03017G26KT 08/05 A3012 RMK A01 T00780049  RH  082%=      5-min Rain = 0
KFR1 051339Z 02015G20KT 08/05 A3012 RMK A01 T00780048  RH  081%=      5-min Rain = 0
KFR1 051340Z 02017G23KT 08/05 A3012 RMK A01 T00780048  RH  081%=      5-min Rain = 0
KFR1 051341Z 02017G23KT 08/05 A3012 RMK A01 T00780048  RH  081%=      5-min Rain = 0
KFR1 051342Z 03016G23KT 08/05 A3012 RMK A01 T00780048  RH  081%=      5-min Rain = 0
KFR1 051343Z 03016G22KT 08/05 A3012 RMK A01 T00780048  RH  081%=      5-min Rain = 0
KFR1 051344Z 03015G20KT 08/05 A3012 RMK A01 T00780048  RH  081%=      5-min Rain = 0
KFR1 051345Z 02013KT 08/05 A3013 RMK A01 T00770048  RH  082%=      5-min Rain = 0
KFR1 051346Z 02014KT 08/05 A3013 RMK A01 T00770048  RH  082%=      5-min Rain = 0
KFR1 051347Z 02014KT 08/05 A3013 RMK A01 T00770048  RH  082%=      5-min Rain = 0
KFR1 051348Z 03010KT 08/05 A3013 RMK A01 T00770048  RH  082%=      5-min Rain = 0
KFR1 051349Z 04011KT 08/05 A3013 RMK A01 T00770048  RH  082%=      5-min Rain = 0
KFR1 051350Z 03013G19KT 08/05 A3013 RMK A01 T00770049  RH  082%=      5-min Rain = 0
KFR1 051351Z 03012G18KT 08/05 A3013 RMK A01 T00770049  RH  083%=      5-min Rain = 0
KFR1 051352Z 02008G14KT 08/05 A3013 RMK A01 T00760049  RH  083%=      5-min Rain = 0
KFR1 051353Z 01012KT 08/05 A3014 RMK A01 T00760049  RH  083%=      5-min Rain = 0
KFR1 051354Z 01013KT 08/05 A3014 RMK A01 T00760050  RH  083%=      5-min Rain = 0
KFR1 051355Z 03012KT 08/05 A3014 RMK A01 T00760050  RH  083%=      5-min Rain = 0
KFR1 051356Z 02011KT 08/05 A3014 RMK A01 T00760050  RH  083%=      5-min Rain = 0
KFR1 051357Z 02012KT 08/05 A3014 RMK A01 T00760050  RH  084%=      5-min Rain = 0
KFR1 051358Z 01011KT 08/05 A3014 RMK A01 T00760050  RH  084%=      5-min Rain = 0
KFR1 051359Z 01016G23KT 08/05 A3014 RMK A01 T00760051  RH  084%=      5-min Rain = 0
KFR1 051400Z 01016KT 08/05 A3014 RMK A01 T00760051  RH  084%=      5-min Rain = 0
KFR1 051401Z 02013G21KT 08/05 A3014 RMK A01 T00760052  RH  084%=      5-min Rain = 0
KFR1 051402Z 01016G23KT 08/05 A3014 RMK A01 T00760052  RH  085%=      5-min Rain = 0
KFR1 051403Z 01014KT 08/05 A3014 RMK A01 T00770052  RH  085%=      5-min Rain = 0
KFR1 051404Z 02016KT 08/05 A3014 RMK A01 T00770052  RH  085%=      5-min Rain = 0
KFR1 051405Z 02016G22KT 08/05 A3014 RMK A01 T00770053  RH  085%=      5-min Rain = 0
KFR1 051406Z 02015G25KT 08/05 A3015 RMK A01 T00770053  RH  085%=      5-min Rain = 0
KFR1 051407Z 01020G26KT 08/05 A3014 RMK A01 T00770053  RH  085%=      5-min Rain = 0
KFR1 051408Z 01019G24KT 08/05 A3014 RMK A01 T00780054  RH  085%=      5-min Rain = 0
KFR1 051409Z 02020G30KT 08/05 A3015 RMK A01 T00780054  RH  085%=      5-min Rain = 0
KFR1 051410Z 02020KT 08/05 A3015 RMK A01 T00780054  RH  085%=      5-min Rain = 0
KFR1 051411Z 02018KT 08/06 A3015 RMK A01 T00780055  RH  085%=      5-min Rain = 0
KFR1 051412Z 02020G27KT 08/06 A3015 RMK A01 T00780055  RH  086%=      5-min Rain = 0
KFR1 051413Z 01016G21KT 08/06 A3015 RMK A01 T00780056  RH  086%=      5-min Rain = 0
KFR1 051414Z 01018G23KT 08/06 A3015 RMK A01 T00780056  RH  086%=      5-min Rain = 0
KFR1 051415Z 02017KT 08/06 A3015 RMK A01 T00770056  RH  086%=      5-min Rain = 0
KFR1 051416Z 01021KT 08/06 A3015 RMK A01 T00770056  RH  086%=      5-min Rain = 0
KFR1 051417Z 01017G22KT 08/06 A3015 RMK A01 T00770055  RH  086%=      5-min Rain = 0
KFR1 051418Z 01015G21KT 08/05 A3015 RMK A01 T00770054  RH  086%=      5-min Rain = 0
KFR1 051419Z 01014G19KT 08/05 A3015 RMK A01 T00770054  RH  085%=      5-min Rain = 0
KFR1 051420Z 01015G20KT 08/05 A3016 RMK A01 T00760053  RH  085%=      5-min Rain = 0
KFR1 051421Z 01016G22KT 08/05 A3016 RMK A01 T00760052  RH  085%=      5-min Rain = 0
KFR1 051422Z 01017KT 08/05 A3016 RMK A01 T00760052  RH  084%=      5-min Rain = 0
KFR1 051423Z 01016G22KT 08/05 A3016 RMK A01 T00760051  RH  084%=      5-min Rain = 0
KFR1 051424Z 02019G24KT 08/05 A3016 RMK A01 T00760051  RH  084%=      5-min Rain = 0
KFR1 051425Z 02015G21KT 08/05 A3016 RMK A01 T00760050  RH  084%=      5-min Rain = 0
KFR1 051426Z 01016G21KT 08/05 A3016 RMK A01 T00760050  RH  083%=      5-min Rain = 0
KFR1 051427Z 01011KT 08/05 A3016 RMK A01 T00760050  RH  083%=      5-min Rain = 0
KFR1 051428Z 02012G17KT 08/05 A3016 RMK A01 T00760050  RH  084%=      5-min Rain = 0
KFR1 051429Z 01014G19KT 08/05 A3017 RMK A01 T00760050  RH  084%=      5-min Rain = 0
KFR1 051430Z 02012KT 08/05 A3017 RMK A01 T00750050  RH  084%=      5-min Rain = 0
KFR1 051431Z 01012KT 08/05 A3017 RMK A01 T00750050  RH  084%=      5-min Rain = 0
KFR1 051432Z 00011KT 08/05 A3017 RMK A01 T00760050  RH  084%=      5-min Rain = 0
KFR1 051433Z 02012G17KT 08/05 A3017 RMK A01 T00750049  RH  084%=      5-min Rain = 0
KFR1 051434Z 01017G22KT 08/05 A3017 RMK A01 T00750049  RH  084%=      5-min Rain = 0
KFR1 051435Z 02017KT 08/05 A3017 RMK A01 T00750049  RH  083%=      5-min Rain = 0
KFR1 051436Z 01015G20KT 08/05 A3017 RMK A01 T00750048  RH  083%=      5-min Rain = 0
KFR1 051437Z 02014KT 08/05 A3017 RMK A01 T00750048  RH  083%=      5-min Rain = 0
KFR1 051438Z 01015KT 08/05 A3017 RMK A01 T00760048  RH  083%=      5-min Rain = 0
KFR1 051439Z 01016KT 08/05 A3017 RMK A01 T00750048  RH  083%=      5-min Rain = 0
KFR1 051440Z 01017KT 08/05 A3017 RMK A01 T00750048  RH  083%=      5-min Rain = 0
KFR1 051441Z 01015G20KT 08/05 A3017 RMK A01 T00750048  RH  083%=      5-min Rain = 0
KFR1 051442Z 01017G22KT 08/05 A3017 RMK A01 T00750048  RH  083%=      5-min Rain = 0
KFR1 051443Z 01018G23KT 08/05 A3018 RMK A01 T00750048  RH  083%=      5-min Rain = 0
KFR1 051444Z 01018G24KT 08/05 A3018 RMK A01 T00750048  RH  083%=      5-min Rain = 0
KFR1 051445Z 01016G24KT 08/05 A3018 RMK A01 T00750047  RH  083%=      5-min Rain = 0
KFR1 051446Z 01016G22KT 08/05 A3018 RMK A01 T00750048  RH  083%=      5-min Rain = 0
KFR1 051447Z 01017G23KT 07/05 A3018 RMK A01 T00740049  RH  084%=      5-min Rain = 0
KFR1 051448Z 01019G29KT 07/05 A3018 RMK A01 T00740049  RH  084%=      5-min Rain = 0
KFR1 051449Z 01021KT 07/05 A3018 RMK A01 T00740050  RH  085%=      5-min Rain = 0
KFR1 051450Z 01019G24KT 07/05 A3018 RMK A01 T00730050  RH  085%=      5-min Rain = 0
KFR1 051451Z 01016G21KT 07/05 A3018 RMK A01 T00730050  RH  085%=      5-min Rain = 0
KFR1 051452Z 01015KT 07/05 A3018 RMK A01 T00720050  RH  086%=      5-min Rain = 0
KFR1 051453Z 01015G20KT 07/05 A3019 RMK A01 T00720050  RH  086%=      5-min Rain = 0
KFR1 051454Z 01015G21KT 07/05 A3019 RMK A01 T00710051  RH  087%=      5-min Rain = 0
KFR1 051455Z 01016KT 07/05 A3019 RMK A01 T00710051  RH  087%=      5-min Rain = 0
KFR1 051456Z 00016KT 07/05 A3019 RMK A01 T00710052  RH  087%=      5-min Rain = 0
KFR1 051457Z 01016KT 07/05 A3019 RMK A01 T00710052  RH  087%=      5-min Rain = 0
KFR1 051458Z 00017G22KT 07/05 A3019 RMK A01 T00710052  RH  087%=      5-min Rain = 0
KFR1 051459Z 01016KT 07/05 A3019 RMK A01 T00710052  RH  087%=      5-min Rain = 0
KFR1 051500Z 00014KT 07/05 A3019 RMK A01 T00710051  RH  087%=      5-min Rain = 0
KFR1 051501Z 00016KT 07/05 A3019 RMK A01 T00710051  RH  087%=      5-min Rain = 0
KFR1 051502Z 01018KT 07/05 A3019 RMK A01 T00710052  RH  088%=      5-min Rain = 0
KFR1 051503Z 00016G21KT 07/05 A3019 RMK A01 T00710053  RH  088%=      5-min Rain = 0
KFR1 051504Z 01016KT 07/05 A3019 RMK A01 T00710052  RH  088%=      5-min Rain = 0
KFR1 051505Z 01014KT 07/05 A3019 RMK A01 T00710052  RH  088%=      5-min Rain = 0
KFR1 051506Z 01016KT 07/05 A3019 RMK A01 T00720052  RH  088%=      5-min Rain = 0
KFR1 051507Z 01015KT 07/05 A3019 RMK A01 T00710052  RH  088%=      5-min Rain = 0
KFR1 051508Z 01014KT 07/05 A3019 RMK A01 T00710052  RH  088%=      5-min Rain = 0
KFR1 051509Z 01015G20KT 07/05 A302 RMK A01 T00710052  RH  088%=      5-min Rain = 0
KFR1 051510Z 01016KT 07/05 A302 RMK A01 T00710052  RH  088%=      5-min Rain = 0
KFR1 051511Z 01016KT 07/05 A302 RMK A01 T00710052  RH  088%=      5-min Rain = 0
KFR1 051512Z 01017KT 07/05 A302 RMK A01 T00720053  RH  088%=      5-min Rain = 0
KFR1 051513Z 01017G22KT 07/05 A302 RMK A01 T00720053  RH  088%=      5-min Rain = 0
KFR1 051514Z 01016G21KT 07/05 A302 RMK A01 T00720053  RH  088%=      5-min Rain = 0
KFR1 051515Z 01015KT 07/05 A302 RMK A01 T00720053  RH  088%=      5-min Rain = 0
KFR1 051516Z 01015G22KT 07/05 A302 RMK A01 T00720053  RH  087%=      5-min Rain = 0
KFR1 051517Z 01014KT 07/05 A302 RMK A01 T00720053  RH  088%=      5-min Rain = 0
KFR1 051518Z 01015G21KT 07/05 A302 RMK A01 T00720053  RH  088%=      5-min Rain = 0
KFR1 051519Z 01015G21KT 07/05 A302 RMK A01 T00730053  RH  088%=      5-min Rain = 0
KFR1 051520Z 01017G22KT 07/05 A302 RMK A01 T00730053  RH  087%=      5-min Rain = 0
KFR1 051521Z 01014KT 07/05 A302 RMK A01 T00730053  RH  087%=      5-min Rain = 0
KFR1 051522Z 01015KT 07/05 A302 RMK A01 T00730053  RH  087%=      5-min Rain = 0
KFR1 051523Z 01015KT 07/05 A302 RMK A01 T00730053  RH  087%=      5-min Rain = 0
KFR1 051524Z 01017KT 07/05 A302 RMK A01 T00730053  RH  087%=      5-min Rain = 0
KFR1 051525Z 01017G24KT 07/05 A302 RMK A01 T00730054  RH  087%=      5-min Rain = 0
KFR1 051526Z 01015KT 07/05 A302 RMK A01 T00740054  RH  087%=      5-min Rain = 0
KFR1 051527Z 02014G19KT 07/05 A302 RMK A01 T00740054  RH  087%=      5-min Rain = 0
KFR1 051528Z 01014G20KT 07/06 A302 RMK A01 T00740055  RH  087%=      5-min Rain = 0
KFR1 051529Z 01015G21KT 07/06 A302 RMK A01 T00740055  RH  088%=      5-min Rain = 0
KFR1 051530Z 01016G22KT 07/06 A302 RMK A01 T00740056  RH  088%=      5-min Rain = 0
KFR1 051531Z 02015KT 07/06 A302 RMK A01 T00740056  RH  089%=      5-min Rain = 0
KFR1 051532Z 02013G18KT 07/06 A3021 RMK A01 T00730056  RH  089%=      5-min Rain = 0
KFR1 051533Z 01017G22KT 07/06 A3021 RMK A01 T00730056  RH  089%=      5-min Rain = 0
KFR1 051534Z 02014KT 07/06 A3021 RMK A01 T00730056  RH  089%=      5-min Rain = 0
KFR1 051535Z 01014KT 07/06 A3021 RMK A01 T00740057  RH  089%=      5-min Rain = 0
KFR1 051536Z 01016KT 07/06 A3021 RMK A01 T00740057  RH  089%=      5-min Rain = 0
KFR1 051537Z 02018G27KT 07/06 A3021 RMK A01 T00740056  RH  089%=      5-min Rain = 0
KFR1 051538Z 02018G24KT 07/06 A3021 RMK A01 T00740056  RH  089%=      5-min Rain = 0
KFR1 051539Z 02011G17KT 08/06 A3021 RMK A01 T00750056  RH  088%=      5-min Rain = 0
KFR1 051540Z 02016G23KT 08/06 A3021 RMK A01 T00750056  RH  088%=      5-min Rain = 0
KFR1 051541Z 03014G19KT 08/06 A3021 RMK A01 T00750056  RH  088%=      5-min Rain = 0
KFR1 051542Z 02014G19KT 08/06 A3021 RMK A01 T00750056  RH  088%=      5-min Rain = 0
KFR1 051543Z 02016G23KT 08/06 A3021 RMK A01 T00750056  RH  088%=      5-min Rain = 0
KFR1 051544Z 02016G22KT 08/06 A3021 RMK A01 T00760056  RH  087%=      5-min Rain = 0
KFR1 051545Z 03016G23KT 08/06 A3021 RMK A01 T00760056  RH  087%=      5-min Rain = 0
KFR1 051546Z 04015G20KT 08/06 A3021 RMK A01 T00760057  RH  087%=      5-min Rain = 0
KFR1 051547Z 04017G22KT 08/06 A3021 RMK A01 T00760056  RH  087%=      5-min Rain = 0
KFR1 051548Z 04017G25KT 08/06 A3021 RMK A01 T00770056  RH  087%=      5-min Rain = 0
KFR1 051549Z 03016KT 08/06 A3021 RMK A01 T00770056  RH  086%=      5-min Rain = 0
KFR1 051550Z 04016KT 08/06 A3021 RMK A01 T00770056  RH  086%=      5-min Rain = 0
KFR1 051551Z 04018KT 08/06 A3021 RMK A01 T00770055  RH  086%=      5-min Rain = 0
KFR1 051552Z 03016G21KT 08/06 A3021 RMK A01 T00780055  RH  085%=      5-min Rain = 0
KFR1 051553Z 03016KT 08/05 A3021 RMK A01 T00780054  RH  085%=      5-min Rain = 0
KFR1 051554Z 03015KT 08/05 A3021 RMK A01 T00780054  RH  084%=      5-min Rain = 0
KFR1 051555Z 04015G20KT 08/05 A3021 RMK A01 T00790054  RH  084%=      5-min Rain = 0
KFR1 051556Z 03013KT 08/05 A3022 RMK A01 T00800054  RH  084%=      5-min Rain = 0
KFR1 051557Z 03015KT 08/05 A3022 RMK A01 T00810054  RH  083%=      5-min Rain = 0
KFR1 051558Z 03017G22KT 08/05 A3022 RMK A01 T00820053  RH  082%=      5-min Rain = 0
KFR1 051559Z 03015KT 08/05 A3022 RMK A01 T00820052  RH  081%=      5-min Rain = 0
KFR1 051600Z 04015KT 08/05 A3022 RMK A01 T00820050  RH  080%=      5-min Rain = 0
KFR1 051601Z 04018KT 08/05 A3022 RMK A01 T00830050  RH  080%=      5-min Rain = 0
KFR1 051602Z 03019KT 08/05 A3022 RMK A01 T00830049  RH  079%=      5-min Rain = 0
KFR1 051603Z 04016G23KT 08/05 A3022 RMK A01 T00840049  RH  079%=      5-min Rain = 0
KFR1 051604Z 04022KT 08/05 A3022 RMK A01 T00840048  RH  078%=      5-min Rain = 0
KFR1 051605Z 04019KT 09/05 A3022 RMK A01 T00850046  RH  076%=      5-min Rain = 0
KFR1 051606Z 04015G22KT 09/05 A3022 RMK A01 T00860046  RH  076%=      5-min Rain = 0
KFR1 051607Z 04015G21KT 09/05 A3022 RMK A01 T00900049  RH  076%=      5-min Rain = 0
KFR1 051608Z 04014KT 09/05 A3022 RMK A01 T00930049  RH  074%=      5-min Rain = 0
KFR1 051609Z 04015KT 09/05 A3022 RMK A01 T00930048  RH  073%=      5-min Rain = 0
KFR1 051610Z 03016KT 09/05 A3022 RMK A01 T00930047  RH  073%=      5-min Rain = 0
KFR1 051611Z 04018G23KT 09/05 A3022 RMK A01 T00920045  RH  073%=      5-min Rain = 0
KFR1 051612Z 05018KT 09/04 A3022 RMK A01 T00910044  RH  073%=      5-min Rain = 0
KFR1 051613Z 03016KT 09/04 A3022 RMK A01 T00910042  RH  071%=      5-min Rain = 0
KFR1 051614Z 05019G24KT 09/04 A3022 RMK A01 T00900041  RH  071%=      5-min Rain = 0
KFR1 051615Z 04017G23KT 09/04 A3022 RMK A01 T00890040  RH  071%=      5-min Rain = 0
KFR1 051616Z 04021KT 09/04 A3022 RMK A01 T00880040  RH  072%=      5-min Rain = 0
KFR1 051617Z 03020G25KT 09/04 A3022 RMK A01 T00880039  RH  072%=      5-min Rain = 0
KFR1 051618Z 04019KT 09/04 A3023 RMK A01 T00880039  RH  072%=      5-min Rain = 0
KFR1 051619Z 04021KT 09/04 A3022 RMK A01 T00880040  RH  072%=      5-min Rain = 0
KFR1 051620Z 04019KT 09/04 A3023 RMK A01 T00870040  RH  072%=      5-min Rain = 0
KFR1 051621Z 05016KT 09/04 A3023 RMK A01 T00860040  RH  073%=      5-min Rain = 0
KFR1 051622Z 04015G20KT 09/04 A3023 RMK A01 T00860040  RH  073%=      5-min Rain = 0
KFR1 051623Z 04017G22KT 09/04 A3023 RMK A01 T00860040  RH  073%=      5-min Rain = 0
KFR1 051624Z 04017KT 09/04 A3023 RMK A01 T00860041  RH  073%=      5-min Rain = 0
KFR1 051625Z 05015KT 09/04 A3023 RMK A01 T00860042  RH  074%=      5-min Rain = 0
KFR1 051626Z 04018KT 09/04 A3023 RMK A01 T00860042  RH  074%=      5-min Rain = 0
KFR1 051627Z 04017KT 09/04 A3023 RMK A01 T00860042  RH  074%=      5-min Rain = 0
KFR1 051628Z 04016KT 09/04 A3023 RMK A01 T00860042  RH  074%=      5-min Rain = 0
KFR1 051629Z 04015KT 09/04 A3023 RMK A01 T00860043  RH  074%=      5-min Rain = 0
KFR1 051630Z 04013G18KT 09/04 A3023 RMK A01 T00860042  RH  074%=      5-min Rain = 0
KFR1 051631Z 04013G18KT 09/04 A3023 RMK A01 T00860043  RH  074%=      5-min Rain = 0
KFR1 051632Z 04018KT 09/04 A3023 RMK A01 T00860043  RH  074%=      5-min Rain = 0
KFR1 051633Z 04015G20KT 09/04 A3023 RMK A01 T00860043  RH  075%=      5-min Rain = 0
KFR1 051634Z 04017G23KT 09/04 A3023 RMK A01 T00860044  RH  075%=      5-min Rain = 0
KFR1 051635Z 04022KT 09/04 A3023 RMK A01 T00860043  RH  074%=      5-min Rain = 0
KFR1 051636Z 03016G22KT 09/04 A3023 RMK A01 T00850042  RH  074%=      5-min Rain = 0
KFR1 051637Z 04019KT 09/04 A3023 RMK A01 T00850042  RH  074%=      5-min Rain = 0
KFR1 051638Z 04017KT 09/04 A3023 RMK A01 T00850041  RH  074%=      5-min Rain = 0
KFR1 051639Z 04014KT 09/04 A3024 RMK A01 T00860041  RH  073%=      5-min Rain = 0
KFR1 051640Z 03014G19KT 09/04 A3024 RMK A01 T00850040  RH  073%=      5-min Rain = 0
KFR1 051641Z 04018KT 09/04 A3024 RMK A01 T00860040  RH  073%=      5-min Rain = 0
KFR1 051642Z 03016KT 09/04 A3024 RMK A01 T00860040  RH  073%=      5-min Rain = 0
KFR1 051643Z 04016KT 09/04 A3024 RMK A01 T00860040  RH  073%=      5-min Rain = 0
KFR1 051644Z 04013KT 09/04 A3024 RMK A01 T00860041  RH  073%=      5-min Rain = 0
KFR1 051645Z 04013KT 09/04 A3024 RMK A01 T00860041  RH  073%=      5-min Rain = 0
KFR1 051646Z 05014KT 09/04 A3024 RMK A01 T00860040  RH  073%=      5-min Rain = 0
KFR1 051647Z 05013KT 09/04 A3024 RMK A01 T00860041  RH  073%=      5-min Rain = 0
KFR1 051648Z 04014G20KT 09/04 A3024 RMK A01 T00860041  RH  073%=      5-min Rain = 0
KFR1 051649Z 04012KT 09/04 A3025 RMK A01 T00860042  RH  074%=      5-min Rain = 0
KFR1 051650Z 04015KT 09/04 A3025 RMK A01 T00850041  RH  074%=      5-min Rain = 0
KFR1 051651Z 04015KT 09/04 A3025 RMK A01 T00850041  RH  074%=      5-min Rain = 0
KFR1 051652Z 04014KT 09/04 A3025 RMK A01 T00850041  RH  074%=      5-min Rain = 0
KFR1 051653Z 05017G22KT 08/04 A3025 RMK A01 T00840041  RH  074%=      5-min Rain = 0
KFR1 051654Z 05015KT 08/04 A3025 RMK A01 T00840042  RH  075%=      5-min Rain = 0
KFR1 051655Z 05014G21KT 08/04 A3025 RMK A01 T00840042  RH  075%=      5-min Rain = 0
KFR1 051656Z 05017G22KT 08/04 A3025 RMK A01 T00840042  RH  075%=      5-min Rain = 0
KFR1 051657Z 05015KT 08/04 A3025 RMK A01 T00830042  RH  075%=      5-min Rain = 0
KFR1 051658Z 04015KT 08/04 A3025 RMK A01 T00830043  RH  076%=      5-min Rain = 0
KFR1 051659Z 04013G18KT 08/04 A3025 RMK A01 T00830043  RH  076%=      5-min Rain = 0
KFR1 051700Z 04013KT 08/04 A3025 RMK A01 T00830043  RH  076%=      5-min Rain = 0
KFR1 051701Z 04013KT 08/04 A3025 RMK A01 T00840043  RH  076%=      5-min Rain = 0
KFR1 051702Z 04012KT 08/04 A3025 RMK A01 T00830043  RH  076%=      5-min Rain = 0
KFR1 051703Z 04013KT 08/04 A3025 RMK A01 T00840044  RH  076%=      5-min Rain = 0
KFR1 051704Z 04012KT 08/04 A3025 RMK A01 T00840044  RH  076%=      5-min Rain = 0
KFR1 051705Z 04012KT 08/04 A3025 RMK A01 T00840044  RH  076%=      5-min Rain = 0
KFR1 051706Z 04014KT 08/04 A3025 RMK A01 T00840044  RH  076%=      5-min Rain = 0
KFR1 051707Z 04012KT 08/04 A3026 RMK A01 T00840044  RH  076%=      5-min Rain = 0
KFR1 051708Z 03012KT 08/04 A3025 RMK A01 T00840044  RH  076%=      5-min Rain = 0
KFR1 051709Z 04013KT 08/04 A3025 RMK A01 T00840044  RH  076%=      5-min Rain = 0
KFR1 051710Z 04012G17KT 08/05 A3026 RMK A01 T00830045  RH  077%=      5-min Rain = 0
KFR1 051711Z 03011KT 08/05 A3026 RMK A01 T00830045  RH  077%=      5-min Rain = 0
KFR1 051712Z 03012G17KT 08/05 A3026 RMK A01 T00830045  RH  077%=      5-min Rain = 0
KFR1 051713Z 03012KT 08/05 A3026 RMK A01 T00830045  RH  077%=      5-min Rain = 0
KFR1 051714Z 02012KT 08/05 A3026 RMK A01 T00830046  RH  078%=      5-min Rain = 0
KFR1 051715Z 03014KT 08/05 A3026 RMK A01 T00820046  RH  078%=      5-min Rain = 0
KFR1 051716Z 03013G20KT 08/05 A3026 RMK A01 T00810047  RH  079%=      5-min Rain = 0
KFR1 051717Z 03013G19KT 08/05 A3026 RMK A01 T00810047  RH  079%=      5-min Rain = 0
KFR1 051718Z 02012KT 08/05 A3026 RMK A01 T00810047  RH  079%=      5-min Rain = 0
KFR1 051719Z 03014G19KT 08/05 A3026 RMK A01 T00810047  RH  079%=      5-min Rain = 0
KFR1 051720Z 02012KT 08/05 A3026 RMK A01 T00810047  RH  079%=      5-min Rain = 0
KFR1 051721Z 03012G17KT 08/05 A3026 RMK A01 T00810047  RH  079%=      5-min Rain = 0
KFR1 051722Z 03013KT 08/05 A3026 RMK A01 T00800047  RH  080%=      5-min Rain = 0
KFR1 051723Z 03015G20KT 08/05 A3026 RMK A01 T00800049  RH  081%=      5-min Rain = 0
KFR1 051724Z 03013KT 08/05 A3026 RMK A01 T00790050  RH  082%=      5-min Rain = 0
KFR1 051725Z 02013G19KT 08/05 A3026 RMK A01 T00790050  RH  082%=      5-min Rain = 0
KFR1 051726Z 03012KT 08/05 A3026 RMK A01 T00780051  RH  083%=      5-min Rain = 0
KFR1 051727Z 03013G20KT 08/05 A3026 RMK A01 T00780052  RH  083%=      5-min Rain = 0
KFR1 051728Z 02012G19KT 08/05 A3026 RMK A01 T00770052  RH  084%=      5-min Rain = 0
KFR1 051729Z 01015KT 08/05 A3026 RMK A01 T00770053  RH  085%=      5-min Rain = 0
KFR1 051730Z 02010G15KT 08/05 A3027 RMK A01 T00770053  RH  085%=      5-min Rain = 0
KFR1 051731Z 01010G18KT 08/05 A3027 RMK A01 T00770054  RH  086%=      5-min Rain = 0
KFR1 051732Z 02014KT 08/05 A3026 RMK A01 T00760054  RH  086%=      5-min Rain = 0
KFR1 051733Z 03013G18KT 08/06 A3026 RMK A01 T00770055  RH  086%=      5-min Rain = 0
KFR1 051734Z 02014G22KT 08/05 A3026 RMK A01 T00760054  RH  086%=      5-min Rain = 0
KFR1 051735Z 04011KT 08/05 A3026 RMK A01 T00760054  RH  086%=      5-min Rain = 0
KFR1 051736Z 03014G19KT 08/05 A3026 RMK A01 T00760054  RH  086%=      5-min Rain = 0
KFR1 051737Z 02016G24KT 08/05 A3026 RMK A01 T00770053  RH  085%=      5-min Rain = 0
KFR1 051738Z 03017KT 08/05 A3026 RMK A01 T00770052  RH  084%=      5-min Rain = 0
KFR1 051739Z 02016KT 08/05 A3026 RMK A01 T00770052  RH  084%=      5-min Rain = 0
KFR1 051740Z 02015KT 08/05 A3026 RMK A01 T00780052  RH  084%=      5-min Rain = 0
KFR1 051741Z 02010G16KT 08/05 A3026 RMK A01 T00780052  RH  083%=      5-min Rain = 0
KFR1 051742Z 02010KT 08/05 A3027 RMK A01 T00780052  RH  083%=      5-min Rain = 0
KFR1 051743Z 02012G17KT 08/05 A3027 RMK A01 T00780052  RH  083%=      5-min Rain = 0
KFR1 051744Z 02014G19KT 08/05 A3026 RMK A01 T00780052  RH  083%=      5-min Rain = 0
KFR1 051745Z 03014KT 08/05 A3026 RMK A01 T00780052  RH  083%=      5-min Rain = 0
KFR1 051746Z 03015G21KT 08/05 A3026 RMK A01 T00790052  RH  083%=      5-min Rain = 0
KFR1 051747Z 03017KT 08/05 A3026 RMK A01 T00790052  RH  083%=      5-min Rain = 0
KFR1 051748Z 02015KT 08/05 A3026 RMK A01 T00790051  RH  083%=      5-min Rain = 0
KFR1 051749Z 02014G20KT 08/05 A3026 RMK A01 T00790052  RH  083%=      5-min Rain = 0
KFR1 051750Z 03015KT 08/05 A3026 RMK A01 T00790051  RH  082%=      5-min Rain = 0
KFR1 051751Z 02012KT 08/05 A3026 RMK A01 T00800051  RH  082%=      5-min Rain = 0
KFR1 051752Z 03013G18KT 08/05 A3026 RMK A01 T00800052  RH  082%=      5-min Rain = 0
KFR1 051753Z 03015KT 08/05 A3026 RMK A01 T00800051  RH  082%=      5-min Rain = 0
KFR1 051754Z 04014G20KT 08/05 A3026 RMK A01 T00810051  RH  082%=      5-min Rain = 0
KFR1 051755Z 04013KT 08/05 A3026 RMK A01 T00810051  RH  081%=      5-min Rain = 0
KFR1 051756Z 04015G20KT 08/05 A3026 RMK A01 T00820051  RH  081%=      5-min Rain = 0
KFR1 051757Z 04013G19KT 08/05 A3026 RMK A01 T00840053  RH  081%=      5-min Rain = 0
KFR1 051758Z 03015KT 09/05 A3026 RMK A01 T00850052  RH  080%=      5-min Rain = 0
KFR1 051759Z 04016G22KT 09/05 A3026 RMK A01 T00850052  RH  080%=      5-min Rain = 0
KFR1 051800Z 04018G23KT 09/05 A3026 RMK A01 T00850051  RH  080%=      5-min Rain = 0
KFR1 051801Z 03018KT 08/05 A3026 RMK A01 T00840050  RH  079%=      5-min Rain = 0
KFR1 051802Z 03017G22KT 09/05 A3026 RMK A01 T00850050  RH  079%=      5-min Rain = 0
KFR1 051803Z 03017G23KT 09/05 A3026 RMK A01 T00850050  RH  079%=      5-min Rain = 0
KFR1 051804Z 03016KT 09/05 A3026 RMK A01 T00860051  RH  078%=      5-min Rain = 0
KFR1 051805Z 04015KT 09/05 A3026 RMK A01 T00870050  RH  078%=      5-min Rain = 0
KFR1 051806Z 04016KT 09/05 A3026 RMK A01 T00880051  RH  078%=      5-min Rain = 0
KFR1 051807Z 04018KT 09/05 A3026 RMK A01 T00890051  RH  077%=      5-min Rain = 0
KFR1 051808Z 04020G25KT 09/05 A3025 RMK A01 T00900050  RH  076%=      5-min Rain = 0
KFR1 051809Z 03017G23KT 09/05 A3026 RMK A01 T00930050  RH  075%=      5-min Rain = 0
KFR1 051810Z 04018G23KT 10/05 A3025 RMK A01 T00960052  RH  074%=      5-min Rain = 0
KFR1 051811Z 04020KT 10/05 A3025 RMK A01 T00990051  RH  072%=      5-min Rain = 0
KFR1 051812Z 04020KT 10/05 A3026 RMK A01 T01010051  RH  071%=      5-min Rain = 0
KFR1 051813Z 04017G23KT 10/05 A3025 RMK A01 T01030050  RH  070%=      5-min Rain = 0
KFR1 051814Z 02016G21KT 10/05 A3026 RMK A01 T01040051  RH  070%=      5-min Rain = 0
KFR1 051815Z 03013G18KT 11/05 A3026 RMK A01 T01050049  RH  069%=      5-min Rain = 0
KFR1 051816Z 03012KT 11/05 A3026 RMK A01 T01050049  RH  069%=      5-min Rain = 0
KFR1 051817Z 02015G24KT 11/05 A3026 RMK A01 T01050048  RH  068%=      5-min Rain = 0
KFR1 051818Z 03016G23KT 11/05 A3025 RMK A01 T01050047  RH  067%=      5-min Rain = 0
KFR1 051819Z 03013KT 11/05 A3026 RMK A01 T01050046  RH  067%=      5-min Rain = 0
KFR1 051820Z 03016G24KT 11/05 A3026 RMK A01 T01060045  RH  066%=      5-min Rain = 0
KFR1 051821Z 04017G23KT 10/04 A3025 RMK A01 T01040044  RH  067%=      5-min Rain = 0
KFR1 051822Z 04018KT 10/05 A3026 RMK A01 T01030045  RH  067%=      5-min Rain = 0
KFR1 051823Z 03014G19KT 10/05 A3026 RMK A01 T01040046  RH  067%=      5-min Rain = 0
KFR1 051824Z 03013G20KT 11/05 A3026 RMK A01 T01090050  RH  067%=      5-min Rain = 0
KFR1 051825Z 02013G18KT 11/05 A3026 RMK A01 T01100047  RH  065%=      5-min Rain = 0
KFR1 051826Z 04014KT 11/05 A3026 RMK A01 T01080046  RH  066%=      5-min Rain = 0
KFR1 051827Z 04018KT 11/05 A3026 RMK A01 T01080046  RH  065%=      5-min Rain = 0
KFR1 051828Z 03019G25KT 11/05 A3026 RMK A01 T01070045  RH  065%=      5-min Rain = 0
KFR1 051829Z 03021KT 11/04 A3025 RMK A01 T01060043  RH  065%=      5-min Rain = 0
KFR1 051830Z 03017G25KT 11/04 A3025 RMK A01 T01050042  RH  065%=      5-min Rain = 0
KFR1 051831Z 04018G23KT 11/04 A3025 RMK A01 T01050043  RH  066%=      5-min Rain = 0
KFR1 051832Z 04016G21KT 11/04 A3025 RMK A01 T01050043  RH  066%=      5-min Rain = 0
KFR1 051833Z 03016G21KT 11/04 A3025 RMK A01 T01050043  RH  066%=      5-min Rain = 0
KFR1 051834Z 04017G22KT 10/04 A3026 RMK A01 T01040044  RH  066%=      5-min Rain = 0
KFR1 051835Z 04018G25KT 10/04 A3025 RMK A01 T01030042  RH  066%=      5-min Rain = 0
KFR1 051836Z 03017G22KT 10/04 A3025 RMK A01 T01020042  RH  066%=      5-min Rain = 0
KFR1 051837Z 03017KT 10/04 A3025 RMK A01 T01020042  RH  066%=      5-min Rain = 0
KFR1 051838Z 03013G18KT 10/04 A3026 RMK A01 T01020042  RH  066%=      5-min Rain = 0
KFR1 051839Z 03014KT 10/04 A3026 RMK A01 T01030043  RH  066%=      5-min Rain = 0
KFR1 051840Z 04015KT 10/04 A3026 RMK A01 T01030042  RH  066%=      5-min Rain = 0
KFR1 051841Z 03017KT 10/04 A3025 RMK A01 T01040043  RH  066%=      5-min Rain = 0
KFR1 051842Z 04019KT 10/04 A3025 RMK A01 T01040043  RH  066%=      5-min Rain = 0
KFR1 051843Z 03015G23KT 10/04 A3026 RMK A01 T01040043  RH  066%=      5-min Rain = 0
KFR1 051844Z 02020G26KT 10/04 A3025 RMK A01 T01040043  RH  066%=      5-min Rain = 0
KFR1 051845Z 03018KT 10/04 A3025 RMK A01 T01030042  RH  066%=      5-min Rain = 0
KFR1 051846Z 02017G25KT 10/04 A3025 RMK A01 T01030042  RH  066%=      5-min Rain = 0
KFR1 051847Z 03018KT 10/04 A3025 RMK A01 T01030040  RH  065%=      5-min Rain = 0
KFR1 051848Z 03020G26KT 10/04 A3025 RMK A01 T01030039  RH  065%=      5-min Rain = 0
KFR1 051849Z 04024G29KT 10/04 A3025 RMK A01 T01030038  RH  064%=      5-min Rain = 0
KFR1 051850Z 03020G30KT 10/04 A3025 RMK A01 T01030037  RH  064%=      5-min Rain = 0
KFR1 051851Z 03019G26KT 10/04 A3025 RMK A01 T01040038  RH  063%=      5-min Rain = 0
KFR1 051852Z 03018G25KT 11/04 A3025 RMK A01 T01050038  RH  063%=      5-min Rain = 0
KFR1 051853Z 04021G27KT 11/04 A3025 RMK A01 T01060039  RH  063%=      5-min Rain = 0
KFR1 051854Z 04020KT 11/04 A3025 RMK A01 T01060039  RH  063%=      5-min Rain = 0
KFR1 051855Z 04018G24KT 11/04 A3025 RMK A01 T01070039  RH  063%=      5-min Rain = 0
KFR1 051856Z 04018KT 11/04 A3025 RMK A01 T01070040  RH  063%=      5-min Rain = 0
KFR1 051857Z 04018G24KT 11/04 A3025 RMK A01 T01080041  RH  063%=      5-min Rain = 0
KFR1 051858Z 04017G22KT 11/04 A3025 RMK A01 T01090041  RH  063%=      5-min Rain = 0
KFR1 051859Z 04018G23KT 11/04 A3025 RMK A01 T01100040  RH  062%=      5-min Rain = 0
KFR1 051900Z 04017G22KT 11/04 A3025 RMK A01 T01100040  RH  062%=      5-min Rain = 0
KFR1 051901Z 03015G22KT 11/04 A3025 RMK A01 T01100040  RH  062%=      5-min Rain = 0
KFR1 051902Z 03020G28KT 11/04 A3025 RMK A01 T01110038  RH  061%=      5-min Rain = 0
KFR1 051903Z 03016KT 11/04 A3025 RMK A01 T01120037  RH  060%=      5-min Rain = 0
KFR1 051904Z 03021G26KT 11/04 A3025 RMK A01 T01120035  RH  059%=      5-min Rain = 0
KFR1 051905Z 04022KT 11/04 A3025 RMK A01 T01120035  RH  059%=      5-min Rain = 0
KFR1 051906Z 02017G23KT 11/03 A3025 RMK A01 T01120033  RH  058%=      5-min Rain = 0
KFR1 051907Z 03018G25KT 11/03 A3025 RMK A01 T01130034  RH  058%=      5-min Rain = 0
KFR1 051908Z 04019KT 12/03 A3025 RMK A01 T01150033  RH  057%=      5-min Rain = 0
KFR1 051909Z 05015KT 12/03 A3025 RMK A01 T01150033  RH  057%=      5-min Rain = 0
KFR1 051910Z 03014G20KT 12/03 A3025 RMK A01 T01150033  RH  057%=      5-min Rain = 0
KFR1 051911Z 04015KT 12/03 A3025 RMK A01 T01150034  RH  058%=      5-min Rain = 0
KFR1 051912Z 03015G22KT 11/03 A3025 RMK A01 T01140034  RH  058%=      5-min Rain = 0
KFR1 051913Z 03017G26KT 12/03 A3025 RMK A01 T01150031  RH  057%=      5-min Rain = 0
KFR1 051914Z 04015G25KT 12/03 A3025 RMK A01 T01150032  RH  057%=      5-min Rain = 0
KFR1 051915Z 04022KT 12/03 A3025 RMK A01 T01160031  RH  056%=      5-min Rain = 0
KFR1 051916Z 04020G25KT 12/03 A3025 RMK A01 T01160029  RH  055%=      5-min Rain = 0
KFR1 051917Z 04019G24KT 12/03 A3025 RMK A01 T01170030  RH  055%=      5-min Rain = 0
KFR1 051918Z 05015G22KT 12/03 A3025 RMK A01 T01170030  RH  055%=      5-min Rain = 0
KFR1 051919Z 04020G25KT 12/03 A3025 RMK A01 T01180032  RH  056%=      5-min Rain = 0
KFR1 051920Z 04020G25KT 12/03 A3025 RMK A01 T01180032  RH  055%=      5-min Rain = 0
KFR1 051921Z 04018KT 12/03 A3025 RMK A01 T01190032  RH  055%=      5-min Rain = 0
KFR1 051922Z 04015KT 12/03 A3025 RMK A01 T01190033  RH  055%=      5-min Rain = 0
KFR1 051923Z 04018G25KT 12/03 A3025 RMK A01 T01180032  RH  055%=      5-min Rain = 0
KFR1 051924Z 05017G23KT 12/03 A3025 RMK A01 T01170031  RH  055%=      5-min Rain = 0
KFR1 051925Z 05019KT 12/03 A3025 RMK A01 T01160031  RH  056%=      5-min Rain = 0
KFR1 051926Z 04014G20KT 12/03 A3025 RMK A01 T01170032  RH  056%=      5-min Rain = 0
KFR1 051927Z 04014G20KT 12/03 A3025 RMK A01 T01170032  RH  056%=      5-min Rain = 0
KFR1 051928Z 04013G18KT 12/03 A3025 RMK A01 T01170031  RH  056%=      5-min Rain = 0
KFR1 051929Z 03015KT 12/03 A3025 RMK A01 T01160032  RH  056%=      5-min Rain = 0
KFR1 051930Z 04015KT 12/03 A3025 RMK A01 T01160032  RH  056%=      5-min Rain = 0
KFR1 051931Z 04017G23KT 12/03 A3025 RMK A01 T01160032  RH  056%=      5-min Rain = 0
KFR1 051932Z 04018G23KT 12/03 A3025 RMK A01 T01170032  RH  056%=      5-min Rain = 0
KFR1 051933Z 03018KT 12/03 A3025 RMK A01 T01160032  RH  056%=      5-min Rain = 0
KFR1 051934Z 04017G22KT 12/03 A3025 RMK A01 T01150031  RH  056%=      5-min Rain = 0
KFR1 051935Z 04017KT 12/03 A3025 RMK A01 T01150031  RH  056%=      5-min Rain = 0
KFR1 051936Z 04014KT 12/03 A3025 RMK A01 T01150031  RH  056%=      5-min Rain = 0
KFR1 051937Z 04014KT 12/03 A3025 RMK A01 T01150031  RH  056%=      5-min Rain = 0
KFR1 051938Z 04017KT 12/03 A3025 RMK A01 T01150031  RH  056%=      5-min Rain = 0
KFR1 051939Z 04016G21KT 12/03 A3025 RMK A01 T01160031  RH  056%=      5-min Rain = 0
KFR1 051940Z 05020KT 12/03 A3024 RMK A01 T01160031  RH  056%=      5-min Rain = 0
KFR1 051941Z 04020KT 12/03 A3025 RMK A01 T01160031  RH  056%=      5-min Rain = 0
KFR1 051942Z 04020G25KT 12/03 A3025 RMK A01 T01150031  RH  056%=      5-min Rain = 0
KFR1 051943Z 04016G21KT 12/03 A3025 RMK A01 T01150032  RH  057%=      5-min Rain = 0
KFR1 051944Z 04017G22KT 12/03 A3025 RMK A01 T01150032  RH  056%=      5-min Rain = 0
KFR1 051945Z 04017KT 12/03 A3025 RMK A01 T01150032  RH  057%=      5-min Rain = 0
KFR1 051946Z 04018KT 12/03 A3025 RMK A01 T01150033  RH  057%=      5-min Rain = 0
KFR1 051947Z 04018KT 12/03 A3025 RMK A01 T01150033  RH  057%=      5-min Rain = 0
KFR1 051948Z 05015KT 12/03 A3025 RMK A01 T01150033  RH  057%=      5-min Rain = 0
KFR1 051949Z 05015KT 12/03 A3025 RMK A01 T01150034  RH  057%=      5-min Rain = 0
KFR1 051950Z 04017G22KT 12/03 A3025 RMK A01 T01150034  RH  057%=      5-min Rain = 0
KFR1 051951Z 04018KT 12/03 A3025 RMK A01 T01150034  RH  057%=      5-min Rain = 0
KFR1 051952Z 05015KT 12/03 A3025 RMK A01 T01150034  RH  058%=      5-min Rain = 0
KFR1 051953Z 05016KT 11/03 A3025 RMK A01 T01140033  RH  058%=      5-min Rain = 0
KFR1 051954Z 04013KT 11/03 A3025 RMK A01 T01140034  RH  058%=      5-min Rain = 0
KFR1 051955Z 05018KT 11/03 A3025 RMK A01 T01140034  RH  058%=      5-min Rain = 0
KFR1 051956Z 04014G20KT 11/03 A3025 RMK A01 T01140034  RH  058%=      5-min Rain = 0
KFR1 051957Z 04014KT 11/03 A3025 RMK A01 T01140034  RH  058%=      5-min Rain = 0
KFR1 051958Z 04014G20KT 12/03 A3025 RMK A01 T01150034  RH  058%=      5-min Rain = 0
KFR1 051959Z 04017KT 12/03 A3025 RMK A01 T01150034  RH  057%=      5-min Rain = 0
KFR1 052000Z 04015G20KT 12/03 A3025 RMK A01 T01150034  RH  057%=      5-min Rain = 0
KFR1 052001Z 04013KT 12/03 A3025 RMK A01 T01150034  RH  057%=      5-min Rain = 0
KFR1 052002Z 04016KT 12/03 A3025 RMK A01 T01150034  RH  058%=      5-min Rain = 0
KFR1 052003Z 04018KT 12/03 A3025 RMK A01 T01150034  RH  057%=      5-min Rain = 0
KFR1 052004Z 04016KT 12/03 A3025 RMK A01 T01150034  RH  057%=      5-min Rain = 0
KFR1 052005Z 04014G19KT 12/03 A3025 RMK A01 T01160034  RH  057%=      5-min Rain = 0
KFR1 052006Z 04015KT 12/03 A3025 RMK A01 T01170034  RH  057%=      5-min Rain = 0
KFR1 052007Z 05013G19KT 12/03 A3025 RMK A01 T01170033  RH  056%=      5-min Rain = 0
KFR1 052008Z 04015KT 12/03 A3025 RMK A01 T01180033  RH  056%=      5-min Rain = 0
KFR1 052009Z 03013KT 12/03 A3025 RMK A01 T01180033  RH  056%=      5-min Rain = 0
KFR1 052010Z 03013KT 12/03 A3025 RMK A01 T01180033  RH  056%=      5-min Rain = 0
KFR1 052011Z 04011G16KT 12/03 A3025 RMK A01 T01180032  RH  056%=      5-min Rain = 0
KFR1 052012Z 03015G20KT 12/03 A3025 RMK A01 T01180032  RH  056%=      5-min Rain = 0
KFR1 052013Z 04013KT 12/03 A3025 RMK A01 T01180032  RH  056%=      5-min Rain = 0
KFR1 052014Z 04014KT 12/03 A3025 RMK A01 T01180032  RH  056%=      5-min Rain = 0
KFR1 052015Z 04013KT 12/03 A3025 RMK A01 T01170032  RH  056%=      5-min Rain = 0
KFR1 052016Z 04014G19KT 12/03 A3025 RMK A01 T01170033  RH  056%=      5-min Rain = 0
KFR1 052017Z 03013G18KT 12/03 A3025 RMK A01 T01170033  RH  056%=      5-min Rain = 0
KFR1 052018Z 04010KT 12/03 A3025 RMK A01 T01180033  RH  056%=      5-min Rain = 0
KFR1 052019Z 04013G20KT 12/03 A3025 RMK A01 T01190034  RH  056%=      5-min Rain = 0
KFR1 052020Z 04012KT 12/03 A3024 RMK A01 T01190033  RH  056%=      5-min Rain = 0
KFR1 052021Z 04014KT 12/03 A3024 RMK A01 T01200034  RH  056%=      5-min Rain = 0
KFR1 052022Z 04015KT 12/04 A3024 RMK A01 T01230035  RH  055%=      5-min Rain = 0
KFR1 052023Z 03012KT 13/04 A3025 RMK A01 T01260036  RH  054%=      5-min Rain = 0
KFR1 052024Z 02012KT 13/04 A3025 RMK A01 T01290036  RH  053%=      5-min Rain = 0
KFR1 052025Z 02010G15KT 13/04 A3025 RMK A01 T01290036  RH  053%=      5-min Rain = 0
KFR1 052026Z 02013KT 13/04 A3025 RMK A01 T01300037  RH  053%=      5-min Rain = 0
KFR1 052027Z 02011KT 13/04 A3025 RMK A01 T01280035  RH  053%=      5-min Rain = 0
KFR1 052028Z 01011KT 12/04 A3025 RMK A01 T01240036  RH  055%=      5-min Rain = 0
KFR1 052029Z 00011KT 12/04 A3025 RMK A01 T01230037  RH  056%=      5-min Rain = 0
KFR1 052030Z 01012KT 12/04 A3025 RMK A01 T01210037  RH  056%=      5-min Rain = 0
KFR1 052031Z 03011G16KT 12/04 A3025 RMK A01 T01200037  RH  057%=      5-min Rain = 0
KFR1 052032Z 02011G17KT 12/04 A3025 RMK A01 T01200037  RH  057%=      5-min Rain = 0
KFR1 052033Z 04013G18KT 12/04 A3025 RMK A01 T01200037  RH  057%=      5-min Rain = 0
KFR1 052034Z 02011KT 12/04 A3025 RMK A01 T01190037  RH  057%=      5-min Rain = 0
KFR1 052035Z 03011KT 12/04 A3025 RMK A01 T01190036  RH  057%=      5-min Rain = 0
KFR1 052036Z 03013KT 12/04 A3025 RMK A01 T01190036  RH  057%=      5-min Rain = 0
KFR1 052037Z 02010KT 12/04 A3025 RMK A01 T01190035  RH  057%=      5-min Rain = 0
KFR1 052038Z 04012KT 12/04 A3025 RMK A01 T01180035  RH  057%=      5-min Rain = 0
KFR1 052039Z 05010KT 12/04 A3025 RMK A01 T01190036  RH  057%=      5-min Rain = 0
KFR1 052040Z 04009KT 12/04 A3025 RMK A01 T01190036  RH  057%=      5-min Rain = 0
KFR1 052041Z 04013KT 12/04 A3025 RMK A01 T01200037  RH  057%=      5-min Rain = 0
KFR1 052042Z 03012KT 12/04 A3025 RMK A01 T01210036  RH  056%=      5-min Rain = 0
KFR1 052043Z 04012KT 12/04 A3025 RMK A01 T01210036  RH  056%=      5-min Rain = 0
KFR1 052044Z 04014KT 12/04 A3024 RMK A01 T01220035  RH  055%=      5-min Rain = 0
KFR1 052045Z 04011KT 12/04 A3024 RMK A01 T01230035  RH  055%=      5-min Rain = 0
KFR1 052046Z 05012KT 13/04 A3024 RMK A01 T01260038  RH  055%=      5-min Rain = 0
KFR1 052047Z 04014KT 13/04 A3024 RMK A01 T01290036  RH  053%=      5-min Rain = 0
KFR1 052048Z 04013KT 13/04 A3024 RMK A01 T01300037  RH  053%=      5-min Rain = 0
KFR1 052049Z 03011KT 13/04 A3024 RMK A01 T01320037  RH  052%=      5-min Rain = 0
KFR1 052050Z 04011KT 14/04 A3024 RMK A01 T01350038  RH  052%=      5-min Rain = 0
KFR1 052051Z 03013KT 14/04 A3024 RMK A01 T01380038  RH  051%=      5-min Rain = 0
KFR1 052052Z 04012KT 14/04 A3024 RMK A01 T01370036  RH  050%=      5-min Rain = 0
KFR1 052053Z 04013KT 14/04 A3024 RMK A01 T01370036  RH  050%=      5-min Rain = 0
KFR1 052054Z 04015KT 14/04 A3024 RMK A01 T01350035  RH  051%=      5-min Rain = 0
KFR1 052055Z 05011KT 13/03 A3024 RMK A01 T01340034  RH  051%=      5-min Rain = 0
KFR1 052056Z 04011KT 14/04 A3024 RMK A01 T01370036  RH  051%=      5-min Rain = 0
KFR1 052057Z 05014KT 14/04 A3024 RMK A01 T01410035  RH  049%=      5-min Rain = 0
KFR1 052058Z 05012KT 14/03 A3024 RMK A01 T01420034  RH  048%=      5-min Rain = 0
KFR1 052059Z 05015KT 14/03 A3024 RMK A01 T01420033  RH  048%=      5-min Rain = 0
KFR1 052100Z 04014KT 14/03 A3024 RMK A01 T01380031  RH  048%=      5-min Rain = 0
KFR1 052101Z 04016KT 14/03 A3024 RMK A01 T01360032  RH  049%=      5-min Rain = 0
KFR1 052102Z 03015G20KT 14/03 A3024 RMK A01 T01350030  RH  049%=      5-min Rain = 0
KFR1 052103Z 04016KT 14/03 A3024 RMK A01 T01350030  RH  049%=      5-min Rain = 0
KFR1 052104Z 04018KT 14/03 A3024 RMK A01 T01350029  RH  049%=      5-min Rain = 0
KFR1 052105Z 04015KT 14/03 A3024 RMK A01 T01350027  RH  048%=      5-min Rain = 0
KFR1 052106Z 04017KT 13/03 A3024 RMK A01 T01340027  RH  048%=      5-min Rain = 0
KFR1 052107Z 03015G21KT 13/03 A3024 RMK A01 T01340027  RH  048%=      5-min Rain = 0
KFR1 052108Z 04016G21KT 13/03 A3024 RMK A01 T01330027  RH  049%=      5-min Rain = 0
KFR1 052109Z 03014G19KT 13/03 A3024 RMK A01 T01330028  RH  049%=      5-min Rain = 0
KFR1 052110Z 03016KT 13/03 A3024 RMK A01 T01320028  RH  050%=      5-min Rain = 0
KFR1 052111Z 04014KT 13/03 A3024 RMK A01 T01310028  RH  050%=      5-min Rain = 0
KFR1 052112Z 04012KT 13/03 A3024 RMK A01 T01310027  RH  049%=      5-min Rain = 0
KFR1 052113Z 04011KT 13/03 A3024 RMK A01 T01310028  RH  049%=      5-min Rain = 0
KFR1 052114Z 03011KT 13/03 A3024 RMK A01 T01320029  RH  050%=      5-min Rain = 0
KFR1 052115Z 03011KT 13/03 A3024 RMK A01 T01320029  RH  050%=      5-min Rain = 0
KFR1 052116Z 04013KT 13/03 A3024 RMK A01 T01320030  RH  050%=      5-min Rain = 0
KFR1 052117Z 04013G18KT 13/03 A3024 RMK A01 T01310030  RH  050%=      5-min Rain = 0
KFR1 052118Z 03011KT 13/03 A3024 RMK A01 T01300029  RH  050%=      5-min Rain = 0
KFR1 052119Z 02010G16KT 13/03 A3024 RMK A01 T01300029  RH  050%=      5-min Rain = 0
KFR1 052120Z 02010KT 13/03 A3024 RMK A01 T01300029  RH  050%=      5-min Rain = 0
KFR1 052121Z 02013KT 13/03 A3024 RMK A01 T01300028  RH  050%=      5-min Rain = 0
KFR1 052122Z 02014KT 13/03 A3024 RMK A01 T01290027  RH  050%=      5-min Rain = 0
KFR1 052123Z 02010KT 13/03 A3024 RMK A01 T01300028  RH  050%=      5-min Rain = 0
KFR1 052124Z 03012G17KT 13/03 A3024 RMK A01 T01300028  RH  050%=      5-min Rain = 0
KFR1 052125Z 03010G15KT 13/03 A3024 RMK A01 T01300027  RH  050%=      5-min Rain = 0
KFR1 052126Z 02012G18KT 13/03 A3024 RMK A01 T01300027  RH  049%=      5-min Rain = 0
KFR1 052127Z 02014G19KT 13/03 A3024 RMK A01 T01310027  RH  049%=      5-min Rain = 0
KFR1 052128Z 02015KT 13/03 A3024 RMK A01 T01300027  RH  049%=      5-min Rain = 0
KFR1 052129Z 03015KT 13/03 A3024 RMK A01 T01300027  RH  049%=      5-min Rain = 0
KFR1 052130Z 03010KT 13/03 A3024 RMK A01 T01300027  RH  050%=      5-min Rain = 0
KFR1 052131Z 04011G16KT 13/03 A3024 RMK A01 T01310029  RH  050%=      5-min Rain = 0
KFR1 052132Z 04014KT 13/03 A3024 RMK A01 T01330030  RH  049%=      5-min Rain = 0
KFR1 052133Z 04015KT 14/03 A3024 RMK A01 T01370031  RH  048%=      5-min Rain = 0
KFR1 052134Z 04013KT 14/03 A3024 RMK A01 T01400029  RH  047%=      5-min Rain = 0
KFR1 052135Z 04014KT 14/03 A3024 RMK A01 T01410027  RH  046%=      5-min Rain = 0
KFR1 052136Z 04012KT 14/03 A3024 RMK A01 T01420026  RH  046%=      5-min Rain = 0
KFR1 052137Z 03009G14KT 14/03 A3025 RMK A01 T01430026  RH  045%=      5-min Rain = 0
KFR1 052138Z 02012G17KT 14/03 A3025 RMK A01 T01440025  RH  045%=      5-min Rain = 0
KFR1 052139Z 03016KT 14/02 A3025 RMK A01 T01400021  RH  044%=      5-min Rain = 0
KFR1 052140Z 02013KT 14/02 A3025 RMK A01 T01370021  RH  046%=      5-min Rain = 0
KFR1 052141Z 02014KT 14/02 A3025 RMK A01 T01350022  RH  046%=      5-min Rain = 0
KFR1 052142Z 03012KT 13/02 A3025 RMK A01 T01340023  RH  047%=      5-min Rain = 0
KFR1 052143Z 03010KT 14/02 A3025 RMK A01 T01350023  RH  047%=      5-min Rain = 0
KFR1 052144Z 03013KT 14/02 A3025 RMK A01 T01350024  RH  047%=      5-min Rain = 0
KFR1 052145Z 03013KT 14/03 A3025 RMK A01 T01350025  RH  047%=      5-min Rain = 0
KFR1 052146Z 02014KT 14/03 A3025 RMK A01 T01350026  RH  048%=      5-min Rain = 0
KFR1 052147Z 03012G18KT 14/03 A3025 RMK A01 T01350027  RH  048%=      5-min Rain = 0
KFR1 052148Z 02013KT 13/03 A3025 RMK A01 T01340028  RH  049%=      5-min Rain = 0
KFR1 052149Z 03012G19KT 13/03 A3025 RMK A01 T01330028  RH  049%=      5-min Rain = 0
KFR1 052150Z 02013G20KT 13/03 A3025 RMK A01 T01330028  RH  049%=      5-min Rain = 0
KFR1 052151Z 02013G19KT 13/03 A3025 RMK A01 T01330028  RH  049%=      5-min Rain = 0
KFR1 052152Z 02015G21KT 13/03 A3025 RMK A01 T01330028  RH  049%=      5-min Rain = 0
KFR1 052153Z 02013G19KT 13/03 A3025 RMK A01 T01330027  RH  049%=      5-min Rain = 0
KFR1 052154Z 03014G20KT 13/03 A3025 RMK A01 T01330028  RH  049%=      5-min Rain = 0
KFR1 052155Z 02011KT 13/03 A3025 RMK A01 T01330028  RH  049%=      5-min Rain = 0
KFR1 052156Z 02011KT 13/03 A3025 RMK A01 T01320029  RH  049%=      5-min Rain = 0
KFR1 052157Z 01011KT 13/03 A3025 RMK A01 T01320028  RH  049%=      5-min Rain = 0
KFR1 052158Z 01013KT 13/03 A3025 RMK A01 T01320028  RH  049%=      5-min Rain = 0
KFR1 052159Z 02015KT 13/03 A3025 RMK A01 T01320028  RH  049%=      5-min Rain = 0
KFR1 052200Z 02009KT 13/03 A3025 RMK A01 T01310028  RH  050%=      5-min Rain = 0
KFR1 052201Z 02013KT 13/03 A3025 RMK A01 T01310029  RH  050%=      5-min Rain = 0
KFR1 052202Z 02014KT 13/03 A3025 RMK A01 T01310029  RH  050%=      5-min Rain = 0
KFR1 052203Z 01012KT 13/03 A3025 RMK A01 T01310031  RH  051%=      5-min Rain = 0
KFR1 052204Z 02015KT 13/03 A3025 RMK A01 T01310032  RH  051%=      5-min Rain = 0
KFR1 052205Z 03012KT 13/03 A3025 RMK A01 T01320034  RH  051%=      5-min Rain = 0
KFR1 052206Z 02013KT 13/03 A3025 RMK A01 T01330034  RH  051%=      5-min Rain = 0
KFR1 052207Z 01011G17KT 13/03 A3025 RMK A01 T01320034  RH  051%=      5-min Rain = 0
KFR1 052208Z 01010KT 13/04 A3025 RMK A01 T01320035  RH  052%=      5-min Rain = 0
KFR1 052209Z 01010KT 13/04 A3025 RMK A01 T01320036  RH  052%=      5-min Rain = 0
KFR1 052210Z 02011KT 13/04 A3025 RMK A01 T01310037  RH  053%=      5-min Rain = 0
KFR1 052211Z 02009KT 13/04 A3025 RMK A01 T01300036  RH  053%=      5-min Rain = 0
KFR1 052212Z 02008KT 13/04 A3026 RMK A01 T01300036  RH  053%=      5-min Rain = 0
KFR1 052213Z 01008KT 13/04 A3026 RMK A01 T01300036  RH  053%=      5-min Rain = 0
KFR1 052214Z 01010KT 13/04 A3026 RMK A01 T01300035  RH  052%=      5-min Rain = 0
KFR1 052215Z 36010KT 13/04 A3026 RMK A01 T01300035  RH  052%=      5-min Rain = 0
KFR1 052216Z 01011KT 13/03 A3026 RMK A01 T01310034  RH  052%=      5-min Rain = 0
KFR1 052217Z 36008KT 13/03 A3026 RMK A01 T01320034  RH  051%=      5-min Rain = 0
KFR1 052218Z 00011KT 13/03 A3026 RMK A01 T01330033  RH  051%=      5-min Rain = 0
KFR1 052219Z 00009KT 13/03 A3026 RMK A01 T01340033  RH  050%=      5-min Rain = 0
KFR1 052220Z 36011KT 14/03 A3026 RMK A01 T01370033  RH  049%=      5-min Rain = 0
KFR1 052221Z 01011KT 14/03 A3025 RMK A01 T01360032  RH  049%=      5-min Rain = 0
KFR1 052222Z 00011KT 14/03 A3026 RMK A01 T01360032  RH  049%=      5-min Rain = 0
KFR1 052223Z 00012KT 14/03 A3026 RMK A01 T01360031  RH  049%=      5-min Rain = 0
KFR1 052224Z 00010KT 14/03 A3026 RMK A01 T01360031  RH  049%=      5-min Rain = 0
KFR1 052225Z 36009KT 14/03 A3026 RMK A01 T01360031  RH  049%=      5-min Rain = 0
KFR1 052226Z 00007KT 14/03 A3025 RMK A01 T01360032  RH  049%=      5-min Rain = 0
KFR1 052227Z 01008KT 14/03 A3026 RMK A01 T01370032  RH  049%=      5-min Rain = 0
KFR1 052228Z 00009KT 14/03 A3025 RMK A01 T01360032  RH  049%=      5-min Rain = 0
KFR1 052229Z 00009KT 13/03 A3026 RMK A01 T01340032  RH  050%=      5-min Rain = 0
KFR1 052230Z 02008KT 13/03 A3026 RMK A01 T01320031  RH  050%=      5-min Rain = 0
KFR1 052231Z 02009G14KT 13/03 A3026 RMK A01 T01320032  RH  051%=      5-min Rain = 0
KFR1 052232Z 03010KT 13/03 A3026 RMK A01 T01320032  RH  051%=      5-min Rain = 0
KFR1 052233Z 03011KT 13/03 A3025 RMK A01 T01320031  RH  050%=      5-min Rain = 0
KFR1 052234Z 04011KT 13/03 A3025 RMK A01 T01330029  RH  049%=      5-min Rain = 0
KFR1 052235Z 04012KT 13/03 A3025 RMK A01 T01330027  RH  048%=      5-min Rain = 0
KFR1 052236Z 04009KT 13/03 A3026 RMK A01 T01340026  RH  048%=      5-min Rain = 0
KFR1 052237Z 04008KT 13/03 A3026 RMK A01 T01340025  RH  048%=      5-min Rain = 0
KFR1 052238Z 04010KT 14/02 A3026 RMK A01 T01350024  RH  047%=      5-min Rain = 0
KFR1 052239Z 04010KT 14/02 A3025 RMK A01 T01360023  RH  046%=      5-min Rain = 0
KFR1 052240Z 05010KT 14/02 A3025 RMK A01 T01360022  RH  046%=      5-min Rain = 0
KFR1 052241Z 05010KT 14/02 A3026 RMK A01 T01370022  RH  046%=      5-min Rain = 0
KFR1 052242Z 03008KT 14/02 A3025 RMK A01 T01390023  RH  045%=      5-min Rain = 0
KFR1 052243Z 03008KT 14/02 A3026 RMK A01 T01410023  RH  045%=      5-min Rain = 0
KFR1 052244Z 02010KT 14/02 A3026 RMK A01 T01420023  RH  044%=      5-min Rain = 0
KFR1 052245Z 04008KT 14/02 A3026 RMK A01 T01430023  RH  044%=      5-min Rain = 0
KFR1 052246Z 04010KT 15/02 A3026 RMK A01 T01450022  RH  044%=      5-min Rain = 0
KFR1 052247Z 04008KT 14/02 A3026 RMK A01 T01440019  RH  043%=      5-min Rain = 0
KFR1 052248Z 02006KT 14/02 A3026 RMK A01 T01440021  RH  043%=      5-min Rain = 0
KFR1 052249Z 01008KT 15/02 A3026 RMK A01 T01480023  RH  043%=      5-min Rain = 0
KFR1 052250Z 01008KT 15/02 A3026 RMK A01 T01470020  RH  042%=      5-min Rain = 0
KFR1 052251Z 02010KT 15/02 A3025 RMK A01 T01470019  RH  042%=      5-min Rain = 0
KFR1 052252Z 02010KT 15/02 A3025 RMK A01 T01450017  RH  042%=      5-min Rain = 0
KFR1 052253Z 01007KT 15/02 A3025 RMK A01 T01450018  RH  042%=      5-min Rain = 0
KFR1 052254Z 01010KT 15/02 A3025 RMK A01 T01450018  RH  042%=      5-min Rain = 0
KFR1 052255Z 04008KT 15/02 A3025 RMK A01 T01450018  RH  042%=      5-min Rain = 0
KFR1 052256Z 03007KT 15/02 A3025 RMK A01 T01460019  RH  042%=      5-min Rain = 0
KFR1 052257Z 02009KT 15/02 A3025 RMK A01 T01470017  RH  041%=      5-min Rain = 0
KFR1 052258Z 03008KT 15/02 A3025 RMK A01 T01460017  RH  042%=      5-min Rain = 0
KFR1 052259Z 03010KT 15/02 A3025 RMK A01 T01470018  RH  042%=      5-min Rain = 0
KFR1 052300Z 02010KT 15/02 A3025 RMK A01 T01470018  RH  042%=      5-min Rain = 0
KFR1 052301Z 01009KT 15/02 A3025 RMK A01 T01480019  RH  042%=      5-min Rain = 0
KFR1 052302Z 02011KT 15/02 A3025 RMK A01 T01470019  RH  042%=      5-min Rain = 0
KFR1 052303Z 02009KT 15/02 A3025 RMK A01 T01450019  RH  043%=      5-min Rain = 0
KFR1 052304Z 03015G20KT 15/02 A3025 RMK A01 T01460019  RH  042%=      5-min Rain = 0
KFR1 052305Z 03010G18KT 15/02 A3025 RMK A01 T01450016  RH  042%=      5-min Rain = 0
KFR1 052306Z 03012KT 15/02 A3025 RMK A01 T01450017  RH  042%=      5-min Rain = 0
KFR1 052307Z 03013G18KT 15/02 A3025 RMK A01 T01450015  RH  041%=      5-min Rain = 0
KFR1 052308Z 04014KT 14/01 A3025 RMK A01 T01440014  RH  041%=      5-min Rain = 0
KFR1 052309Z 03012G19KT 14/01 A3025 RMK A01 T01440013  RH  041%=      5-min Rain = 0
KFR1 052310Z 04015KT 14/01 A3025 RMK A01 T01440011  RH  040%=      5-min Rain = 0
KFR1 052311Z 04014KT 14/01 A3025 RMK A01 T01430010  RH  040%=      5-min Rain = 0
KFR1 052312Z 03015KT 14/01 A3025 RMK A01 T01420008  RH  040%=      5-min Rain = 0
KFR1 052313Z 04014KT 14/01 A3025 RMK A01 T01410008  RH  040%=      5-min Rain = 0
KFR1 052314Z 04012KT 14/01 A3025 RMK A01 T01400009  RH  041%=      5-min Rain = 0
KFR1 052315Z 04012KT 14/01 A3025 RMK A01 T01390009  RH  041%=      5-min Rain = 0
KFR1 052316Z 04011KT 14/01 A3025 RMK A01 T01380008  RH  041%=      5-min Rain = 0
KFR1 052317Z 03010KT 14/01 A3025 RMK A01 T01380009  RH  041%=      5-min Rain = 0
KFR1 052318Z 04009KT 14/01 A3025 RMK A01 T01380009  RH  041%=      5-min Rain = 0
KFR1 052319Z 04008KT 14/01 A3025 RMK A01 T01380009  RH  041%=      5-min Rain = 0
KFR1 052320Z 04009KT 14/01 A3025 RMK A01 T01380009  RH  041%=      5-min Rain = 0
KFR1 052321Z 04010KT 14/01 A3025 RMK A01 T01380010  RH  042%=      5-min Rain = 0
KFR1 052322Z 04008KT 14/01 A3025 RMK A01 T01380010  RH  042%=      5-min Rain = 0
KFR1 052323Z 03011KT 14/01 A3025 RMK A01 T01370010  RH  042%=      5-min Rain = 0
KFR1 052324Z 03011KT 14/01 A3025 RMK A01 T01370010  RH  042%=      5-min Rain = 0
KFR1 052325Z 04008KT 14/01 A3025 RMK A01 T01370010  RH  042%=      5-min Rain = 0
KFR1 052326Z 04009KT 14/01 A3025 RMK A01 T01360009  RH  042%=      5-min Rain = 0
KFR1 052327Z 03010KT 14/01 A3025 RMK A01 T01360010  RH  042%=      5-min Rain = 0
KFR1 052328Z 04011KT 14/01 A3025 RMK A01 T01360010  RH  042%=      5-min Rain = 0
KFR1 052329Z 02011KT 14/01 A3025 RMK A01 T01360010  RH  042%=      5-min Rain = 0
KFR1 052330Z 03009KT 14/01 A3025 RMK A01 T01360010  RH  042%=      5-min Rain = 0
KFR1 052331Z 04009KT 14/01 A3025 RMK A01 T01360010  RH  042%=      5-min Rain = 0
KFR1 052332Z 04009KT 14/01 A3025 RMK A01 T01360010  RH  042%=      5-min Rain = 0
KFR1 052333Z 03009KT 14/01 A3025 RMK A01 T01360009  RH  042%=      5-min Rain = 0
KFR1 052334Z 03010KT 14/01 A3025 RMK A01 T01360009  RH  042%=      5-min Rain = 0
KFR1 052335Z 04008KT 14/01 A3025 RMK A01 T01370009  RH  042%=      5-min Rain = 0
KFR1 052336Z 02008KT 14/01 A3025 RMK A01 T01360009  RH  042%=      5-min Rain = 0
KFR1 052337Z 03007KT 14/01 A3026 RMK A01 T01360009  RH  042%=      5-min Rain = 0
KFR1 052338Z 03006KT 13/01 A3026 RMK A01 T01340009  RH  042%=      5-min Rain = 0
KFR1 052339Z 04007KT 13/01 A3026 RMK A01 T01340009  RH  042%=      5-min Rain = 0
KFR1 052340Z 03009KT 13/01 A3025 RMK A01 T01340009  RH  042%=      5-min Rain = 0
KFR1 052341Z 03011KT 14/01 A3025 RMK A01 T01350009  RH  042%=      5-min Rain = 0
KFR1 052342Z 02007KT 14/01 A3026 RMK A01 T01360009  RH  042%=      5-min Rain = 0
KFR1 052343Z 03007KT 14/01 A3026 RMK A01 T01360009  RH  042%=      5-min Rain = 0
KFR1 052344Z 03009KT 14/01 A3026 RMK A01 T01360009  RH  042%=      5-min Rain = 0
KFR1 052345Z 03012KT 14/01 A3025 RMK A01 T01360009  RH  042%=      5-min Rain = 0
KFR1 052346Z 02010KT 14/01 A3025 RMK A01 T01360008  RH  042%=      5-min Rain = 0
KFR1 052347Z 02013KT 14/01 A3025 RMK A01 T01360008  RH  042%=      5-min Rain = 0
KFR1 052348Z 03012KT 14/01 A3025 RMK A01 T01360008  RH  042%=      5-min Rain = 0
KFR1 052349Z 02013KT 14/01 A3025 RMK A01 T01350008  RH  042%=      5-min Rain = 0
KFR1 052350Z 03010KT 14/01 A3025 RMK A01 T01350008  RH  042%=      5-min Rain = 0
KFR1 052351Z 03011KT 14/01 A3025 RMK A01 T01350008  RH  042%=      5-min Rain = 0
KFR1 052352Z 03012KT 14/01 A3025 RMK A01 T01350008  RH  042%=      5-min Rain = 0
KFR1 052353Z 02012KT 14/01 A3025 RMK A01 T01350008  RH  042%=      5-min Rain = 0
KFR1 052354Z 02010KT 13/01 A3026 RMK A01 T01340008  RH  042%=      5-min Rain = 0
KFR1 052355Z 02007KT 13/01 A3026 RMK A01 T01330008  RH  042%=      5-min Rain = 0
KFR1 052356Z 02009KT 13/01 A3026 RMK A01 T01320008  RH  043%=      5-min Rain = 0
KFR1 052357Z 03007KT 13/01 A3026 RMK A01 T01320008  RH  043%=      5-min Rain = 0
KFR1 052358Z 03009KT 13/01 A3026 RMK A01 T01320008  RH  043%=      5-min Rain = 0
KFR1 052359Z 03009KT 13/01 A3026 RMK A01 T01320008  RH  042%=      5-min Rain = 0
KFR1 060000Z 03008KT 13/01 A3026 RMK A01 T01330008  RH  042%=      5-min Rain = 0
KFR1 060001Z 04009KT 13/01 A3026 RMK A01 T01330008  RH  042%=      5-min Rain = 0
KFR1 060002Z 03009KT 13/01 A3026 RMK A01 T01330008  RH  042%=      5-min Rain = 0
KFR1 060003Z 03009KT 13/01 A3026 RMK A01 T01330008  RH  043%=      5-min Rain = 0
KFR1 060004Z 05010KT 13/01 A3026 RMK A01 T01330009  RH  043%=      5-min Rain = 0
KFR1 060005Z 03010KT 13/01 A3026 RMK A01 T01340009  RH  043%=      5-min Rain = 0
KFR1 060006Z 04007KT 13/01 A3026 RMK A01 T01340009  RH  042%=      5-min Rain = 0
KFR1 060007Z 04009KT 13/01 A3026 RMK A01 T01340009  RH  043%=      5-min Rain = 0
KFR1 060008Z 04009KT 13/01 A3026 RMK A01 T01330010  RH  043%=      5-min Rain = 0
KFR1 060009Z 05009KT 13/01 A3026 RMK A01 T01340012  RH  043%=      5-min Rain = 0
KFR1 060010Z 04010KT 13/01 A3026 RMK A01 T01330012  RH  044%=      5-min Rain = 0
KFR1 060011Z 05008KT 13/01 A3026 RMK A01 T01330013  RH  044%=      5-min Rain = 0
KFR1 060012Z 05008KT 13/01 A3026 RMK A01 T01340013  RH  044%=      5-min Rain = 0
KFR1 060013Z 04008KT 13/01 A3026 RMK A01 T01330013  RH  044%=      5-min Rain = 0
KFR1 060014Z 04009KT 13/01 A3026 RMK A01 T01330013  RH  044%=      5-min Rain = 0
KFR1 060015Z 04008KT 13/01 A3026 RMK A01 T01330012  RH  044%=      5-min Rain = 0
KFR1 060016Z 03009KT 13/01 A3026 RMK A01 T01330012  RH  044%=      5-min Rain = 0
KFR1 060017Z 03010KT 13/01 A3026 RMK A01 T01330010  RH  043%=      5-min Rain = 0
KFR1 060018Z 04009KT 13/01 A3026 RMK A01 T01330009  RH  043%=      5-min Rain = 0
KFR1 060019Z 03010KT 13/01 A3026 RMK A01 T01340008  RH  042%=      5-min Rain = 0
KFR1 060020Z 04009KT 13/01 A3026 RMK A01 T01340008  RH  042%=      5-min Rain = 0
KFR1 060021Z 04008KT 13/01 A3026 RMK A01 T01340008  RH  042%=      5-min Rain = 0
KFR1 060022Z 04008KT 13/01 A3026 RMK A01 T01340007  RH  042%=      5-min Rain = 0
KFR1 060023Z 03007KT 13/01 A3026 RMK A01 T01340007  RH  042%=      5-min Rain = 0
KFR1 060024Z 03009KT 13/01 A3026 RMK A01 T01330007  RH  042%=      5-min Rain = 0
KFR1 060025Z 03008KT 13/01 A3026 RMK A01 T01330006  RH  042%=      5-min Rain = 0
KFR1 060026Z 03006KT 13/01 A3026 RMK A01 T01320006  RH  042%=      5-min Rain = 0
KFR1 060027Z 03009KT 13/01 A3026 RMK A01 T01310005  RH  042%=      5-min Rain = 0
KFR1 060028Z 03008KT 13/01 A3026 RMK A01 T01310005  RH  042%=      5-min Rain = 0
KFR1 060029Z 03009KT 13/00 A3026 RMK A01 T01320004  RH  042%=      5-min Rain = 0
KFR1 060030Z 03008KT 13/00 A3026 RMK A01 T01320004  RH  041%=      5-min Rain = 0
KFR1 060031Z 04008KT 13/00 A3026 RMK A01 T01330004  RH  041%=      5-min Rain = 0
KFR1 060032Z 04008KT 13/00 A3027 RMK A01 T01320004  RH  041%=      5-min Rain = 0
KFR1 060033Z 03008KT 13/00 A3027 RMK A01 T01320004  RH  041%=      5-min Rain = 0
KFR1 060034Z 03009KT 13/00 A3027 RMK A01 T01310004  RH  042%=      5-min Rain = 0
KFR1 060035Z 03008KT 13/00 A3027 RMK A01 T01310004  RH  042%=      5-min Rain = 0
KFR1 060036Z 03008KT 13/00 A3027 RMK A01 T01310004  RH  042%=      5-min Rain = 0
KFR1 060037Z 03009KT 13/00 A3027 RMK A01 T01300004  RH  042%=      5-min Rain = 0
KFR1 060038Z 04009KT 13/01 A3027 RMK A01 T01300005  RH  042%=      5-min Rain = 0
KFR1 060039Z 04010KT 13/01 A3027 RMK A01 T01310005  RH  042%=      5-min Rain = 0
KFR1 060040Z 04012KT 13/01 A3027 RMK A01 T01310006  RH  042%=      5-min Rain = 0
KFR1 060041Z 04011KT 13/01 A3027 RMK A01 T01310006  RH  043%=      5-min Rain = 0
KFR1 060042Z 04012KT 13/01 A3027 RMK A01 T01300007  RH  043%=      5-min Rain = 0
KFR1 060043Z 04012KT 13/01 A3027 RMK A01 T01300008  RH  043%=      5-min Rain = 0
KFR1 060044Z 04010KT 13/01 A3027 RMK A01 T01300007  RH  043%=      5-min Rain = 0
KFR1 060045Z 04008KT 13/01 A3027 RMK A01 T01290007  RH  043%=      5-min Rain = 0
KFR1 060046Z 04009KT 13/01 A3027 RMK A01 T01280007  RH  044%=      5-min Rain = 0
KFR1 060047Z 04011KT 13/01 A3027 RMK A01 T01280007  RH  044%=      5-min Rain = 0
KFR1 060048Z 04010KT 13/01 A3027 RMK A01 T01270007  RH  044%=      5-min Rain = 0
KFR1 060049Z 04010KT 13/01 A3027 RMK A01 T01270008  RH  044%=      5-min Rain = 0
KFR1 060050Z 05007KT 13/01 A3027 RMK A01 T01270008  RH  044%=      5-min Rain = 0
KFR1 060051Z 04008KT 13/01 A3027 RMK A01 T01260007  RH  044%=      5-min Rain = 0
KFR1 060052Z 04008KT 12/01 A3027 RMK A01 T01240007  RH  044%=      5-min Rain = 0
KFR1 060053Z 04008KT 12/01 A3027 RMK A01 T01230007  RH  045%=      5-min Rain = 0
KFR1 060054Z 04008KT 12/01 A3027 RMK A01 T01230007  RH  045%=      5-min Rain = 0
KFR1 060055Z 05009KT 12/01 A3027 RMK A01 T01230007  RH  045%=      5-min Rain = 0
KFR1 060056Z 04007KT 12/01 A3027 RMK A01 T01240007  RH  045%=      5-min Rain = 0
KFR1 060057Z 04008KT 12/01 A3027 RMK A01 T01230007  RH  045%=      5-min Rain = 0
KFR1 060058Z 04006KT 12/01 A3027 RMK A01 T01220007  RH  045%=      5-min Rain = 0
KFR1 060059Z 05006KT 12/01 A3027 RMK A01 T01220007  RH  045%=      5-min Rain = 0
KFR1 060100Z 05006KT 12/01 A3027 RMK A01 T01210007  RH  045%=      5-min Rain = 0
KFR1 060101Z 05006KT 12/01 A3027 RMK A01 T01210006  RH  045%=      5-min Rain = 0
KFR1 060102Z 05006KT 12/01 A3027 RMK A01 T01200006  RH  046%=      5-min Rain = 0
KFR1 060103Z 05008KT 12/01 A3027 RMK A01 T01200006  RH  046%=      5-min Rain = 0
KFR1 060104Z 05006KT 12/01 A3027 RMK A01 T01210006  RH  045%=      5-min Rain = 0
KFR1 060105Z 05007KT 12/01 A3028 RMK A01 T01210006  RH  045%=      5-min Rain = 0
KFR1 060106Z 05007KT 12/01 A3028 RMK A01 T01210006  RH  045%=      5-min Rain = 0
KFR1 060107Z 04007KT 12/01 A3028 RMK A01 T01200006  RH  045%=      5-min Rain = 0
KFR1 060108Z 05007KT 12/01 A3028 RMK A01 T01200006  RH  045%=      5-min Rain = 0
KFR1 060109Z 05008KT 12/01 A3028 RMK A01 T01200006  RH  046%=      5-min Rain = 0
KFR1 060110Z 05007KT 12/01 A3028 RMK A01 T01200006  RH  046%=      5-min Rain = 0
KFR1 060111Z 05007KT 12/01 A3028 RMK A01 T01200006  RH  046%=      5-min Rain = 0
KFR1 060112Z 05007KT 12/01 A3028 RMK A01 T01190005  RH  046%=      5-min Rain = 0
KFR1 060113Z 05008KT 12/01 A3028 RMK A01 T01190005  RH  046%=      5-min Rain = 0
KFR1 060114Z 05007KT 12/01 A3028 RMK A01 T01190005  RH  045%=      5-min Rain = 0
KFR1 060115Z 05007KT 12/01 A3028 RMK A01 T01190005  RH  045%=      5-min Rain = 0
KFR1 060116Z 05007KT 12/01 A3028 RMK A01 T01180005  RH  046%=      5-min Rain = 0
KFR1 060117Z 05007KT 12/00 A3028 RMK A01 T01180004  RH  046%=      5-min Rain = 0
KFR1 060118Z 05007KT 12/01 A3028 RMK A01 T01190005  RH  046%=      5-min Rain = 0
KFR1 060119Z 05007KT 12/00 A3028 RMK A01 T01180004  RH  046%=      5-min Rain = 0
KFR1 060120Z 05007KT 12/00 A3028 RMK A01 T01180004  RH  046%=      5-min Rain = 0
KFR1 060121Z 05007KT 12/00 A3028 RMK A01 T01180004  RH  046%=      5-min Rain = 0
KFR1 060122Z 05007KT 12/00 A3028 RMK A01 T01170004  RH  046%=      5-min Rain = 0
KFR1 060123Z 05007KT 12/00 A3028 RMK A01 T01170004  RH  046%=      5-min Rain = 0
KFR1 060124Z 05007KT 12/00 A3028 RMK A01 T01170004  RH  046%=      5-min Rain = 0
KFR1 060125Z 05007KT 12/00 A3028 RMK A01 T01170003  RH  046%=      5-min Rain = 0
KFR1 060126Z 05007KT 12/00 A3028 RMK A01 T01170003  RH  045%=      5-min Rain = 0
KFR1 060127Z 05007KT 12/00 A3028 RMK A01 T01160003  RH  045%=      5-min Rain = 0
KFR1 060128Z 05007KT 12/00 A3028 RMK A01 T01160003  RH  045%=      5-min Rain = 0
KFR1 060129Z 05007KT 12/00 A3028 RMK A01 T01160002  RH  046%=      5-min Rain = 0
KFR1 060130Z 05007KT 12/00 A3028 RMK A01 T01150002  RH  046%=      5-min Rain = 0
KFR1 060131Z 05006KT 12/00 A3028 RMK A01 T01150002  RH  046%=      5-min Rain = 0
KFR1 060132Z 05007KT 11/00 A3028 RMK A01 T01140001  RH  046%=      5-min Rain = 0
KFR1 060133Z 05007KT 11/00 A3028 RMK A01 T01130001  RH  046%=      5-min Rain = 0
KFR1 060134Z 05008KT 11/00 A3028 RMK A01 T01130001  RH  046%=      5-min Rain = 0
KFR1 060135Z 05006KT 11/00 A3028 RMK A01 T01140001  RH  046%=      5-min Rain = 0
KFR1 060136Z 05007KT 11/00 A3028 RMK A01 T01130001  RH  046%=      5-min Rain = 0
KFR1 060137Z 05007KT 11/00 A3028 RMK A01 T01120001  RH  046%=      5-min Rain = 0
KFR1 060138Z 05007KT 11/00 A3028 RMK A01 T01120000  RH  046%=      5-min Rain = 0
KFR1 060139Z 05007KT 11/00 A3028 RMK A01 T01120000  RH  046%=      5-min Rain = 0
KFR1 060140Z 05007KT 11/00 A3028 RMK A01 T01120000  RH  046%=      5-min Rain = 0
KFR1 060141Z 05007KT 11/00 A3028 RMK A01 T01120000  RH  046%=      5-min Rain = 0
KFR1 060142Z 05006KT 11/00 A3028 RMK A01 T01120000  RH  046%=      5-min Rain = 0
KFR1 060143Z 05007KT 11/00 A3029 RMK A01 T011200-0  RH  046%=      5-min Rain = 0
KFR1 060144Z 06007KT 11/00 A3029 RMK A01 T011100-0  RH  046%=      5-min Rain = 0
KFR1 060145Z 05007KT 11/M00 A3029 RMK A01 T01111001  RH  046%=      5-min Rain = 0
KFR1 060146Z 05007KT 11/00 A3029 RMK A01 T011100-0  RH  046%=      5-min Rain = 0
KFR1 060147Z 05007KT 11/M00 A3029 RMK A01 T01111001  RH  046%=      5-min Rain = 0
KFR1 060148Z 06007KT 11/M00 A3029 RMK A01 T01111001  RH  046%=      5-min Rain = 0
KFR1 060149Z 06007KT 11/M00 A3029 RMK A01 T01111001  RH  046%=      5-min Rain = 0
KFR1 060150Z 05007KT 11/M00 A3029 RMK A01 T01101001  RH  046%=      5-min Rain = 0
KFR1 060151Z 05007KT 11/M00 A3029 RMK A01 T01101001  RH  046%=      5-min Rain = 0
KFR1 060152Z 05006KT 11/M00 A3029 RMK A01 T01101001  RH  046%=      5-min Rain = 0
KFR1 060153Z 05007KT 11/M00 A3029 RMK A01 T01101001  RH  046%=      5-min Rain = 0
KFR1 060154Z 05007KT 11/M00 A3029 RMK A01 T01091001  RH  046%=      5-min Rain = 0
KFR1 060155Z 05006KT 11/M00 A3029 RMK A01 T01091001  RH  047%=      5-min Rain = 0
KFR1 060156Z 05007KT 11/M00 A3029 RMK A01 T01081001  RH  047%=      5-min Rain = 0
KFR1 060157Z 05007KT 11/M00 A3029 RMK A01 T01081001  RH  047%=      5-min Rain = 0
KFR1 060158Z 06007KT 11/M00 A3029 RMK A01 T01091001  RH  047%=      5-min Rain = 0
KFR1 060159Z 06008KT 11/00 A3029 RMK A01 T01100000  RH  047%=      5-min Rain = 0
KFR1 060200Z 06008KT 11/00 A3029 RMK A01 T01110000  RH  046%=      5-min Rain = 0
KFR1 060201Z 06008KT 11/00 A3029 RMK A01 T011200-0  RH  046%=      5-min Rain = 0
KFR1 060202Z 06008KT 11/00 A3029 RMK A01 T011200-0  RH  046%=      5-min Rain = 0
KFR1 060203Z 05008KT 11/00 A3029 RMK A01 T011200-0  RH  046%=      5-min Rain = 0
KFR1 060204Z 05007KT 11/M00 A3029 RMK A01 T01121001  RH  046%=      5-min Rain = 0
KFR1 060205Z 05007KT 11/M00 A3029 RMK A01 T01111001  RH  046%=      5-min Rain = 0
KFR1 060206Z 05007KT 11/M00 A3029 RMK A01 T01101001  RH  046%=      5-min Rain = 0
KFR1 060207Z 05006KT 11/M00 A3029 RMK A01 T01101001  RH  046%=      5-min Rain = 0
KFR1 060208Z 05006KT 11/M00 A3029 RMK A01 T01091002  RH  046%=      5-min Rain = 0
KFR1 060209Z 05006KT 11/M00 A3029 RMK A01 T01081002  RH  047%=      5-min Rain = 0
KFR1 060210Z 05006KT 11/M00 A3029 RMK A01 T01071002  RH  047%=      5-min Rain = 0
KFR1 060211Z 05006KT 11/M00 A3029 RMK A01 T01071002  RH  047%=      5-min Rain = 0
KFR1 060212Z 05006KT 11/M00 A3029 RMK A01 T01061002  RH  047%=      5-min Rain = 0
KFR1 060213Z 05006KT 11/M00 A3029 RMK A01 T01051002  RH  047%=      5-min Rain = 0
KFR1 060214Z 05006KT 11/M00 A3029 RMK A01 T01051002  RH  047%=      5-min Rain = 0
KFR1 060215Z 05007KT 11/M00 A3029 RMK A01 T01051002  RH  047%=      5-min Rain = 0
KFR1 060216Z 05006KT 11/M00 A3029 RMK A01 T01051002  RH  047%=      5-min Rain = 0
KFR1 060217Z 05006KT 11/M00 A3029 RMK A01 T01051002  RH  048%=      5-min Rain = 0
KFR1 060218Z 05006KT 11/M00 A303 RMK A01 T01051002  RH  048%=      5-min Rain = 0
KFR1 060219Z 05006KT 11/M00 A303 RMK A01 T01051002  RH  048%=      5-min Rain = 0
KFR1 060220Z 05006KT 11/M00 A303 RMK A01 T01051002  RH  048%=      5-min Rain = 0
KFR1 060221Z 05005KT 10/M00 A303 RMK A01 T01041002  RH  048%=      5-min Rain = 0
KFR1 060222Z 05005KT 10/M00 A303 RMK A01 T01031002  RH  048%=      5-min Rain = 0
KFR1 060223Z 05004KT 10/M00 A303 RMK A01 T01021003  RH  048%=      5-min Rain = 0
KFR1 060224Z 06005KT 10/M00 A303 RMK A01 T01011002  RH  049%=      5-min Rain = 0
KFR1 060225Z 08005KT 10/M00 A303 RMK A01 T01011002  RH  049%=      5-min Rain = 0
KFR1 060226Z 08005KT 10/M00 A303 RMK A01 T01001003  RH  049%=      5-min Rain = 0
KFR1 060227Z 07005KT 10/M00 A303 RMK A01 T00981003  RH  049%=      5-min Rain = 0
KFR1 060228Z 07007KT 10/M00 A303 RMK A01 T00981003  RH  050%=      5-min Rain = 0
KFR1 060229Z 07007KT 10/M00 A303 RMK A01 T01001001  RH  049%=      5-min Rain = 0
KFR1 060230Z 07007KT 10/M00 A303 RMK A01 T01011001  RH  049%=      5-min Rain = 0
KFR1 060231Z 07007KT 10/M00 A303 RMK A01 T01021002  RH  049%=      5-min Rain = 0
KFR1 060232Z 07007KT 10/M00 A303 RMK A01 T01031001  RH  049%=      5-min Rain = 0
KFR1 060233Z 07006KT 10/M00 A303 RMK A01 T01031002  RH  048%=      5-min Rain = 0
KFR1 060234Z 07006KT 10/M00 A303 RMK A01 T01021002  RH  048%=      5-min Rain = 0
KFR1 060235Z 08006KT 10/M00 A303 RMK A01 T01011003  RH  048%=      5-min Rain = 0
KFR1 060236Z 08005KT 10/M00 A303 RMK A01 T00991004  RH  049%=      5-min Rain = 0
KFR1 060237Z 07004KT 10/M01 A303 RMK A01 T00961005  RH  049%=      5-min Rain = 0
KFR1 060238Z 08005KT 10/M01 A303 RMK A01 T00951005  RH  050%=      5-min Rain = 0
KFR1 060239Z 08005KT 09/M00 A303 RMK A01 T00941004  RH  050%=      5-min Rain = 0
KFR1 060240Z 09006KT 09/M00 A303 RMK A01 T00941003  RH  051%=      5-min Rain = 0
KFR1 060241Z 09006KT 09/M00 A303 RMK A01 T00931004  RH  051%=      5-min Rain = 0
KFR1 060242Z 08005KT 09/M00 A303 RMK A01 T00921004  RH  051%=      5-min Rain = 0
KFR1 060243Z 09006KT 09/M00 A303 RMK A01 T00931003  RH  051%=      5-min Rain = 0
KFR1 060244Z 09006KT 09/M00 A303 RMK A01 T00931003  RH  051%=      5-min Rain = 0
KFR1 060245Z 09006KT 09/M00 A3031 RMK A01 T00931003  RH  051%=      5-min Rain = 0
KFR1 060246Z 09006KT 09/M00 A3031 RMK A01 T00931003  RH  051%=      5-min Rain = 0
KFR1 060247Z 09006KT 09/M00 A3031 RMK A01 T00931004  RH  051%=      5-min Rain = 0
KFR1 060248Z 09006KT 09/M00 A3031 RMK A01 T00931004  RH  051%=      5-min Rain = 0
KFR1 060249Z 09006KT 09/M00 A3031 RMK A01 T00931003  RH  051%=      5-min Rain = 0
KFR1 060250Z 09006KT 09/M00 A3031 RMK A01 T00931003  RH  051%=      5-min Rain = 0
KFR1 060251Z 09005KT 09/M00 A3031 RMK A01 T00921004  RH  051%=      5-min Rain = 0
KFR1 060252Z 10005KT 09/M00 A3031 RMK A01 T00921004  RH  051%=      5-min Rain = 0
KFR1 060253Z 10005KT 09/M00 A3031 RMK A01 T00921004  RH  051%=      5-min Rain = 0
KFR1 060254Z 10004KT 09/M00 A3031 RMK A01 T00911004  RH  051%=      5-min Rain = 0
KFR1 060255Z 10004KT 09/M00 A3031 RMK A01 T00911004  RH  051%=      5-min Rain = 0
KFR1 060256Z 10004KT 09/M00 A3031 RMK A01 T00901004  RH  052%=      5-min Rain = 0
KFR1 060257Z 11003KT 09/M01 A3031 RMK A01 T00891005  RH  052%=      5-min Rain = 0
KFR1 060258Z 11002KT 09/M01 A3031 RMK A01 T00881006  RH  052%=      5-min Rain = 0
KFR1 060259Z 07000KT 09/M01 A3031 RMK A01 T00871005  RH  052%=      5-min Rain = 0
KFR1 060300Z 08000KT 09/M01 A3031 RMK A01 T00861005  RH  053%=      5-min Rain = 0
KFR1 060301Z 09000KT 09/M00 A3031 RMK A01 T00861004  RH  053%=      5-min Rain = 0
KFR1 060302Z 35000KT 09/M00 A3031 RMK A01 T00861004  RH  053%=      5-min Rain = 0
KFR1 060303Z 35000KT 09/M00 A3031 RMK A01 T00861004  RH  053%=      5-min Rain = 0
KFR1 060304Z 00000KT 09/M00 A3031 RMK A01 T00861004  RH  053%=      5-min Rain = 0
KFR1 060305Z 00000KT 09/M01 A3031 RMK A01 T00861005  RH  053%=      5-min Rain = 0
KFR1 060306Z 35000KT 09/M01 A3031 RMK A01 T00851005  RH  053%=      5-min Rain = 0
KFR1 060307Z 34000KT 09/M00 A3031 RMK A01 T00851004  RH  053%=      5-min Rain = 0
KFR1 060308Z 05001KT 09/M00 A3032 RMK A01 T00851004  RH  053%=      5-min Rain = 0
KFR1 060309Z 03000KT 09/M00 A3031 RMK A01 T00861003  RH  053%=      5-min Rain = 0
KFR1 060310Z 04001KT 09/M00 A3031 RMK A01 T00871004  RH  053%=      5-min Rain = 0
KFR1 060311Z 07000KT 09/M00 A3032 RMK A01 T00881004  RH  053%=      5-min Rain = 0
KFR1 060312Z 32000KT 09/M00 A3032 RMK A01 T00881004  RH  053%=      5-min Rain = 0
KFR1 060313Z 01000KT 09/M00 A3032 RMK A01 T00881004  RH  053%=      5-min Rain = 0
KFR1 060314Z 14000KT 09/M00 A3032 RMK A01 T00881003  RH  053%=      5-min Rain = 0
KFR1 060315Z 07000KT 09/M00 A3032 RMK A01 T00891003  RH  053%=      5-min Rain = 0
KFR1 060316Z 05000KT 09/M00 A3032 RMK A01 T00901002  RH  052%=      5-min Rain = 0
KFR1 060317Z 00000KT 09/M00 A3032 RMK A01 T00911002  RH  052%=      5-min Rain = 0
KFR1 060318Z 02000KT 09/M00 A3032 RMK A01 T00921002  RH  052%=      5-min Rain = 0
KFR1 060319Z 35002KT 09/M00 A3032 RMK A01 T00921003  RH  052%=      5-min Rain = 0
KFR1 060320Z 33002KT 09/M00 A3032 RMK A01 T00911003  RH  052%=      5-min Rain = 0
KFR1 060321Z 32001KT 09/M00 A3032 RMK A01 T00911003  RH  052%=      5-min Rain = 0
KFR1 060322Z 32001KT 09/M00 A3032 RMK A01 T00911003  RH  052%=      5-min Rain = 0
KFR1 060323Z 32001KT 09/M00 A3032 RMK A01 T00901003  RH  052%=      5-min Rain = 0
KFR1 060324Z 32001KT 09/M00 A3032 RMK A01 T00901003  RH  052%=      5-min Rain = 0
KFR1 060325Z 27000KT 09/M01 A3032 RMK A01 T00891005  RH  052%=      5-min Rain = 0
KFR1 060326Z 25001KT 09/M01 A3032 RMK A01 T00851006  RH  053%=      5-min Rain = 0
KFR1 060327Z 24001KT 08/M01 A3032 RMK A01 T00821006  RH  054%=      5-min Rain = 0
KFR1 060328Z 24002KT 08/M01 A3032 RMK A01 T00791007  RH  055%=      5-min Rain = 0
KFR1 060329Z 24002KT 08/M01 A3032 RMK A01 T00771006  RH  056%=      5-min Rain = 0
KFR1 060330Z 24002KT 07/M01 A3032 RMK A01 T00741008  RH  056%=      5-min Rain = 0
KFR1 060331Z 24002KT 07/M01 A3032 RMK A01 T00721006  RH  057%=      5-min Rain = 0
KFR1 060332Z 24003KT 07/M01 A3032 RMK A01 T00721006  RH  058%=      5-min Rain = 0
KFR1 060333Z 25002KT 07/M01 A3032 RMK A01 T00711006  RH  058%=      5-min Rain = 0
KFR1 060334Z 25002KT 07/M01 A3032 RMK A01 T00711005  RH  058%=      5-min Rain = 0
KFR1 060335Z 25002KT 07/M01 A3032 RMK A01 T00711005  RH  059%=      5-min Rain = 0
KFR1 060336Z 25002KT 07/M00 A3033 RMK A01 T00711001  RH  060%=      5-min Rain = 0
KFR1 060337Z 27002KT 07/00 A3033 RMK A01 T00710002  RH  061%=      5-min Rain = 0
KFR1 060338Z 28002KT 07/00 A3033 RMK A01 T00720003  RH  062%=      5-min Rain = 0
KFR1 060339Z 28002KT 07/00 A3033 RMK A01 T00720003  RH  061%=      5-min Rain = 0
KFR1 060340Z 28002KT 07/00 A3033 RMK A01 T00730003  RH  061%=      5-min Rain = 0
KFR1 060341Z 28002KT 07/00 A3033 RMK A01 T00740004  RH  061%=      5-min Rain = 0
KFR1 060342Z 28002KT 07/00 A3033 RMK A01 T00740004  RH  061%=      5-min Rain = 0
KFR1 060343Z 27002KT 08/00 A3033 RMK A01 T00750004  RH  061%=      5-min Rain = 0
KFR1 060344Z 27002KT 08/00 A3033 RMK A01 T00760004  RH  060%=      5-min Rain = 0
KFR1 060345Z 26002KT 08/00 A3033 RMK A01 T00760003  RH  060%=      5-min Rain = 0
KFR1 060346Z 26003KT 08/00 A3033 RMK A01 T00760003  RH  060%=      5-min Rain = 0
KFR1 060347Z 25003KT 08/00 A3032 RMK A01 T00760003  RH  060%=      5-min Rain = 0
KFR1 060348Z 26003KT 08/00 A3032 RMK A01 T00760003  RH  060%=      5-min Rain = 0
KFR1 060349Z 25003KT 08/00 A3032 RMK A01 T00750001  RH  060%=      5-min Rain = 0
KFR1 060350Z 24003KT 07/00 A3032 RMK A01 T00720000  RH  060%=      5-min Rain = 0
KFR1 060351Z 23003KT 07/M00 A3032 RMK A01 T00701001  RH  060%=      5-min Rain = 0
KFR1 060352Z 20003KT 07/M00 A3032 RMK A01 T00681004  RH  060%=      5-min Rain = 0
KFR1 060353Z 19004KT 07/M01 A3032 RMK A01 T00651007  RH  060%=      5-min Rain = 0
KFR1 060354Z 21003KT 06/M01 A3032 RMK A01 T00631008  RH  061%=      5-min Rain = 0
KFR1 060355Z 21003KT 06/M01 A3032 RMK A01 T00621007  RH  061%=      5-min Rain = 0
KFR1 060356Z 22003KT 06/M01 A3032 RMK A01 T00601007  RH  062%=      5-min Rain = 0
KFR1 060357Z 22003KT 06/M01 A3032 RMK A01 T00591008  RH  062%=      5-min Rain = 0
KFR1 060358Z 23003KT 06/M01 A3032 RMK A01 T00591007  RH  063%=      5-min Rain = 0
KFR1 060359Z 22003KT 06/M00 A3032 RMK A01 T00601004  RH  063%=      5-min Rain = 0
KFR1 060400Z 20003KT 06/M00 A3033 RMK A01 T00641001  RH  063%=      5-min Rain = 0
KFR1 060401Z 21003KT 07/M00 A3033 RMK A01 T00671002  RH  062%=      5-min Rain = 0
KFR1 060402Z 23002KT 07/M00 A3033 RMK A01 T00671002  RH  061%=      5-min Rain = 0
KFR1 060403Z 23002KT 07/M00 A3033 RMK A01 T00651003  RH  061%=      5-min Rain = 0
KFR1 060404Z 24002KT 06/M00 A3033 RMK A01 T00641004  RH  062%=      5-min Rain = 0
KFR1 060405Z 24002KT 06/M00 A3033 RMK A01 T00641003  RH  062%=      5-min Rain = 0
KFR1 060406Z 23002KT 06/M00 A3033 RMK A01 T00641003  RH  063%=      5-min Rain = 0
KFR1 060407Z 24001KT 06/M00 A3033 RMK A01 T00641003  RH  062%=      5-min Rain = 0
KFR1 060408Z 25002KT 06/M00 A3033 RMK A01 T00631003  RH  062%=      5-min Rain = 0
KFR1 060409Z 26002KT 06/M00 A3033 RMK A01 T00641002  RH  063%=      5-min Rain = 0
KFR1 060410Z 27001KT 06/M00 A3033 RMK A01 T00641001  RH  063%=      5-min Rain = 0
KFR1 060411Z 27001KT 07/00 A3033 RMK A01 T006600-0  RH  063%=      5-min Rain = 0
KFR1 060412Z 27001KT 07/00 A3033 RMK A01 T00670000  RH  062%=      5-min Rain = 0
KFR1 060413Z 27002KT 07/00 A3033 RMK A01 T00680000  RH  062%=      5-min Rain = 0
KFR1 060414Z 28002KT 07/00 A3033 RMK A01 T00690000  RH  062%=      5-min Rain = 0
KFR1 060415Z 28002KT 07/00 A3033 RMK A01 T00700001  RH  061%=      5-min Rain = 0
KFR1 060416Z 27002KT 07/00 A3033 RMK A01 T00710001  RH  061%=      5-min Rain = 0
KFR1 060417Z 27002KT 07/00 A3033 RMK A01 T00720001  RH  060%=      5-min Rain = 0
KFR1 060418Z 27002KT 07/00 A3033 RMK A01 T00730000  RH  060%=      5-min Rain = 0
KFR1 060419Z 25002KT 07/00 A3033 RMK A01 T007400-0  RH  059%=      5-min Rain = 0
KFR1 060420Z 25002KT 07/M00 A3033 RMK A01 T00731001  RH  059%=      5-min Rain = 0
KFR1 060421Z 25002KT 07/M00 A3033 RMK A01 T00711002  RH  060%=      5-min Rain = 0
KFR1 060422Z 25002KT 07/M00 A3033 RMK A01 T00701001  RH  061%=      5-min Rain = 0
KFR1 060423Z 25001KT 07/M00 A3033 RMK A01 T00691002  RH  061%=      5-min Rain = 0
KFR1 060424Z 25001KT 07/M00 A3033 RMK A01 T00671002  RH  061%=      5-min Rain = 0
KFR1 060425Z 25001KT 07/M00 A3033 RMK A01 T00651003  RH  062%=      5-min Rain = 0
KFR1 060426Z 25001KT 06/M00 A3033 RMK A01 T00631003  RH  063%=      5-min Rain = 0
KFR1 060427Z 25001KT 06/M00 A3033 RMK A01 T00621002  RH  063%=      5-min Rain = 0
KFR1 060428Z 24002KT 06/M00 A3033 RMK A01 T00621002  RH  063%=      5-min Rain = 0
KFR1 060429Z 24002KT 06/M00 A3033 RMK A01 T00621002  RH  063%=      5-min Rain = 0
KFR1 060430Z 24002KT 06/M00 A3033 RMK A01 T00631001  RH  063%=      5-min Rain = 0
KFR1 060431Z 24002KT 06/M00 A3033 RMK A01 T00641001  RH  063%=      5-min Rain = 0
KFR1 060432Z 24002KT 07/M00 A3033 RMK A01 T00651001  RH  063%=      5-min Rain = 0
KFR1 060433Z 23002KT 07/M00 A3033 RMK A01 T00661001  RH  062%=      5-min Rain = 0
KFR1 060434Z 23002KT 07/M00 A3033 RMK A01 T00651001  RH  062%=      5-min Rain = 0
KFR1 060435Z 23003KT 06/M00 A3033 RMK A01 T00641001  RH  063%=      5-min Rain = 0
KFR1 060436Z 23003KT 06/M00 A3033 RMK A01 T00641001  RH  063%=      5-min Rain = 0
KFR1 060437Z 23003KT 06/M00 A3033 RMK A01 T00641001  RH  063%=      5-min Rain = 0
KFR1 060438Z 23003KT 06/M00 A3033 RMK A01 T00641001  RH  063%=      5-min Rain = 0
KFR1 060439Z 23002KT 06/M00 A3033 RMK A01 T00641001  RH  063%=      5-min Rain = 0
KFR1 060440Z 23002KT 06/M00 A3033 RMK A01 T00631001  RH  063%=      5-min Rain = 0
KFR1 060441Z 24003KT 06/M00 A3033 RMK A01 T00631001  RH  064%=      5-min Rain = 0
KFR1 060442Z 24003KT 06/M00 A3033 RMK A01 T00631001  RH  064%=      5-min Rain = 0
KFR1 060443Z 23003KT 06/M00 A3033 RMK A01 T00631001  RH  064%=      5-min Rain = 0
KFR1 060444Z 23003KT 06/M00 A3033 RMK A01 T00621001  RH  064%=      5-min Rain = 0
KFR1 060445Z 24003KT 06/M00 A3033 RMK A01 T00621001  RH  064%=      5-min Rain = 0
KFR1 060446Z 24002KT 06/M00 A3033 RMK A01 T00621002  RH  064%=      5-min Rain = 0
KFR1 060447Z 24002KT 06/M00 A3033 RMK A01 T00621002  RH  064%=      5-min Rain = 0
KFR1 060448Z 24002KT 06/M00 A3033 RMK A01 T00621002  RH  064%=      5-min Rain = 0
KFR1 060449Z 24002KT 06/M00 A3033 RMK A01 T00621002  RH  064%=      5-min Rain = 0
KFR1 060450Z 23002KT 06/M00 A3033 RMK A01 T00621002  RH  063%=      5-min Rain = 0
KFR1 060451Z 22002KT 06/M00 A3033 RMK A01 T00621002  RH  063%=      5-min Rain = 0
KFR1 060452Z 22002KT 06/M00 A3033 RMK A01 T00621002  RH  063%=      5-min Rain = 0
KFR1 060453Z 22002KT 06/M00 A3033 RMK A01 T00621003  RH  063%=      5-min Rain = 0
KFR1 060454Z 22002KT 06/M00 A3033 RMK A01 T00611003  RH  064%=      5-min Rain = 0
KFR1 060455Z 22003KT 06/M00 A3033 RMK A01 T00601003  RH  064%=      5-min Rain = 0
KFR1 060456Z 22003KT 06/M00 A3034 RMK A01 T00591003  RH  064%=      5-min Rain = 0
KFR1 060457Z 21002KT 06/M00 A3034 RMK A01 T00591003  RH  064%=      5-min Rain = 0
KFR1 060458Z 22003KT 06/M00 A3034 RMK A01 T00581003  RH  065%=      5-min Rain = 0
KFR1 060459Z 22003KT 06/M00 A3034 RMK A01 T00581003  RH  065%=      5-min Rain = 0
KFR1 060500Z 22003KT 06/M00 A3034 RMK A01 T00581003  RH  065%=      5-min Rain = 0
KFR1 060501Z 21004KT 06/M00 A3034 RMK A01 T00571004  RH  065%=      5-min Rain = 0
KFR1 060502Z 21003KT 06/M00 A3034 RMK A01 T00551004  RH  066%=      5-min Rain = 0
KFR1 060503Z 22003KT 06/M00 A3034 RMK A01 T00561003  RH  066%=      5-min Rain = 0
KFR1 060504Z 22003KT 06/M00 A3034 RMK A01 T00571003  RH  065%=      5-min Rain = 0
KFR1 060505Z 23003KT 06/M00 A3034 RMK A01 T00571003  RH  065%=      5-min Rain = 0
KFR1 060506Z 22003KT 06/M00 A3034 RMK A01 T00571003  RH  065%=      5-min Rain = 0
KFR1 060507Z 22003KT 06/M00 A3034 RMK A01 T00571003  RH  065%=      5-min Rain = 0
KFR1 060508Z 22003KT 06/M00 A3034 RMK A01 T00571004  RH  065%=      5-min Rain = 0
KFR1 060509Z 22003KT 06/M00 A3034 RMK A01 T00561004  RH  065%=      5-min Rain = 0
KFR1 060510Z 23003KT 06/M00 A3034 RMK A01 T00561004  RH  065%=      5-min Rain = 0
KFR1 060511Z 23003KT 06/M00 A3034 RMK A01 T00571004  RH  065%=      5-min Rain = 0
KFR1 060512Z 23003KT 06/M01 A3034 RMK A01 T00561005  RH  065%=      5-min Rain = 0
KFR1 060513Z 23003KT 06/M00 A3034 RMK A01 T00551004  RH  066%=      5-min Rain = 0
KFR1 060514Z 23003KT 06/M00 A3034 RMK A01 T00551004  RH  066%=      5-min Rain = 0
KFR1 060515Z 23003KT 06/M00 A3034 RMK A01 T00551003  RH  066%=      5-min Rain = 0
KFR1 060516Z 23003KT 06/M00 A3034 RMK A01 T00571002  RH  066%=      5-min Rain = 0
KFR1 060517Z 22003KT 06/M00 A3034 RMK A01 T00571003  RH  065%=      5-min Rain = 0
KFR1 060518Z 23003KT 06/M00 A3034 RMK A01 T00561004  RH  065%=      5-min Rain = 0
KFR1 060519Z 23003KT 06/M01 A3034 RMK A01 T00551005  RH  065%=      5-min Rain = 0
KFR1 060520Z 24004KT 05/M01 A3034 RMK A01 T00541005  RH  066%=      5-min Rain = 0
KFR1 060521Z 24003KT 05/M01 A3034 RMK A01 T00521006  RH  066%=      5-min Rain = 0
KFR1 060522Z 24003KT 05/M01 A3034 RMK A01 T00501006  RH  067%=      5-min Rain = 0
KFR1 060523Z 23003KT 05/M01 A3034 RMK A01 T00501006  RH  067%=      5-min Rain = 0
KFR1 060524Z 23003KT 05/M01 A3034 RMK A01 T00491006  RH  068%=      5-min Rain = 0
KFR1 060525Z 23004KT 05/M01 A3034 RMK A01 T00491005  RH  068%=      5-min Rain = 0
KFR1 060526Z 23003KT 05/M01 A3034 RMK A01 T00481007  RH  067%=      5-min Rain = 0
KFR1 060527Z 23003KT 05/M01 A3034 RMK A01 T00471007  RH  068%=      5-min Rain = 0
KFR1 060528Z 23003KT 05/M01 A3034 RMK A01 T00471005  RH  069%=      5-min Rain = 0
KFR1 060529Z 24003KT 05/M00 A3034 RMK A01 T00481004  RH  069%=      5-min Rain = 0
KFR1 060530Z 24004KT 05/M00 A3034 RMK A01 T00491004  RH  069%=      5-min Rain = 0
KFR1 060531Z 25003KT 05/M00 A3034 RMK A01 T00501003  RH  068%=      5-min Rain = 0
KFR1 060532Z 24003KT 05/M00 A3034 RMK A01 T00511003  RH  068%=      5-min Rain = 0
KFR1 060533Z 24003KT 05/M00 A3034 RMK A01 T00511003  RH  068%=      5-min Rain = 0
KFR1 060534Z 25003KT 05/M00 A3034 RMK A01 T00511004  RH  068%=      5-min Rain = 0
KFR1 060535Z 25003KT 05/M00 A3034 RMK A01 T00501004  RH  068%=      5-min Rain = 0
KFR1 060536Z 25003KT 05/M00 A3034 RMK A01 T00501004  RH  068%=      5-min Rain = 0
KFR1 060537Z 25003KT 05/M00 A3033 RMK A01 T00501003  RH  069%=      5-min Rain = 0
KFR1 060538Z 24003KT 05/M00 A3033 RMK A01 T00491004  RH  069%=      5-min Rain = 0
KFR1 060539Z 24002KT 05/M00 A3033 RMK A01 T00491004  RH  069%=      5-min Rain = 0
KFR1 060540Z 24002KT 05/M01 A3033 RMK A01 T00481005  RH  069%=      5-min Rain = 0
KFR1 060541Z 24002KT 05/M01 A3033 RMK A01 T00471006  RH  069%=      5-min Rain = 0
KFR1 060542Z 24002KT 05/M01 A3033 RMK A01 T00461006  RH  069%=      5-min Rain = 0
KFR1 060543Z 24002KT 05/M01 A3033 RMK A01 T00461005  RH  070%=      5-min Rain = 0
KFR1 060544Z 24002KT 05/M00 A3033 RMK A01 T00451004  RH  070%=      5-min Rain = 0
KFR1 060545Z 24002KT 05/M00 A3033 RMK A01 T00451004  RH  070%=      5-min Rain = 0
KFR1 060546Z 24002KT 05/M00 A3033 RMK A01 T00451004  RH  070%=      5-min Rain = 0
KFR1 060547Z 23002KT 04/M01 A3033 RMK A01 T00441005  RH  071%=      5-min Rain = 0
KFR1 060548Z 23003KT 04/M01 A3033 RMK A01 T00421005  RH  072%=      5-min Rain = 0
KFR1 060549Z 22003KT 04/M01 A3033 RMK A01 T00401005  RH  072%=      5-min Rain = 0
KFR1 060550Z 22003KT 04/M00 A3033 RMK A01 T00401004  RH  073%=      5-min Rain = 0
KFR1 060551Z 22004KT 04/M00 A3033 RMK A01 T00391004  RH  073%=      5-min Rain = 0
KFR1 060552Z 23004KT 04/M01 A3033 RMK A01 T00391005  RH  073%=      5-min Rain = 0
KFR1 060553Z 23004KT 04/M01 A3033 RMK A01 T00391006  RH  072%=      5-min Rain = 0
KFR1 060554Z 23004KT 04/M01 A3033 RMK A01 T00381007  RH  072%=      5-min Rain = 0
KFR1 060555Z 23004KT 04/M01 A3033 RMK A01 T00391006  RH  072%=      5-min Rain = 0
KFR1 060556Z 23004KT 04/M01 A3033 RMK A01 T00411006  RH  071%=      5-min Rain = 0
KFR1 060557Z 23004KT 04/M01 A3033 RMK A01 T00421006  RH  071%=      5-min Rain = 0
KFR1 060558Z 23004KT 04/M01 A3033 RMK A01 T00431006  RH  070%=      5-min Rain = 0
KFR1 060559Z 23004KT 04/M01 A3033 RMK A01 T00441006  RH  070%=      5-min Rain = 0

Page generated in 0.1801 seconds.